Time,TemperatureF,DewpointF,PressureIn,WindDirection,WindDirectionDegrees,WindSpeedMPH,WindSpeedGustMPH,Humidity,HourlyPrecipIn,Conditions,Clouds,dailyrainin,SoftwareType,DateUTC
2013-03-29 00:00:00,54.1,48.1,30.01,NNE,22,2.4,2.6,80,0.00,,,0.10,VWS V14.00,2013-03-28 22:00:00,
2013-03-29 00:05:00,54.1,48.1,30.00,NNW,338,5.3,5.3,80,0.00,,,0.00,VWS V14.00,2013-03-28 22:05:00,
2013-03-29 00:10:00,54.1,48.1,30.01,NNW,338,4.0,8.7,80,0.00,,,0.00,VWS V14.00,2013-03-28 22:10:00,
2013-03-29 00:15:00,53.9,47.9,30.01,NW,315,3.8,3.8,80,0.00,,,0.00,VWS V14.00,2013-03-28 22:15:00,
2013-03-29 00:20:00,53.9,47.9,30.01,NE,45,2.0,5.3,80,0.00,,,0.00,VWS V14.00,2013-03-28 22:20:00,
2013-03-29 00:21:00,53.9,47.9,30.01,NE,45,2.0,2.0,80,0.00,,,0.00,VWS V14.00,2013-03-28 22:21:00,
2013-03-29 00:25:00,53.9,47.9,30.00,NNE,22,1.5,3.8,80,0.00,,,0.00,VWS V14.00,2013-03-28 22:25:00,
2013-03-29 00:26:00,53.9,47.9,30.01,NNW,338,1.7,1.7,80,0.00,,,0.00,VWS V14.00,2013-03-28 22:26:00,
2013-03-29 00:30:00,53.7,47.7,30.01,NW,315,0.8,1.7,80,0.00,,,0.00,VWS V14.00,2013-03-28 22:30:00,
2013-03-29 00:31:00,53.7,47.7,30.01,NNW,338,2.9,2.9,80,0.00,,,0.00,VWS V14.00,2013-03-28 22:31:00,
2013-03-29 00:35:00,53.7,48.0,30.01,North,0,1.3,2.9,81,0.00,,,0.00,VWS V14.00,2013-03-28 22:35:00,
2013-03-29 00:36:00,53.7,48.0,30.01,North,0,1.3,1.3,81,0.00,,,0.00,VWS V14.00,2013-03-28 22:36:00,
2013-03-29 00:40:00,53.7,48.0,30.01,NW,315,2.0,2.0,81,0.00,,,0.00,VWS V14.00,2013-03-28 22:40:00,
2013-03-29 00:41:00,53.7,48.0,30.01,North,0,1.3,1.3,81,0.00,,,0.00,VWS V14.00,2013-03-28 22:41:00,
2013-03-29 00:42:00,53.7,48.0,30.01,North,0,1.3,1.3,81,0.00,,,0.00,VWS V14.00,2013-03-28 22:42:00,
2013-03-29 00:45:00,53.7,48.0,30.00,NNW,338,2.2,2.2,81,0.00,,,0.00,VWS V14.00,2013-03-28 22:45:00,
2013-03-29 00:46:00,53.7,48.0,30.00,North,0,2.4,2.4,81,0.00,,,0.00,VWS V14.00,2013-03-28 22:46:00,
2013-03-29 00:47:00,53.7,48.0,30.00,North,0,2.4,2.4,81,0.00,,,0.00,VWS V14.00,2013-03-28 22:47:00,
2013-03-29 00:50:00,53.7,48.0,30.01,NW,315,3.1,3.1,81,0.00,,,0.00,VWS V14.00,2013-03-28 22:50:00,
2013-03-29 00:51:00,53.7,48.0,30.01,NW,315,3.1,3.1,81,0.00,,,0.00,VWS V14.00,2013-03-28 22:51:00,
2013-03-29 00:52:00,53.7,48.0,30.01,North,0,1.5,3.1,81,0.00,,,0.00,VWS V14.00,2013-03-28 22:52:00,
2013-03-29 00:55:00,53.7,48.0,30.01,North,0,4.6,4.6,81,0.00,,,0.00,VWS V14.00,2013-03-28 22:55:00,
2013-03-29 00:56:00,53.7,48.0,30.01,North,0,4.6,4.6,81,0.00,,,0.00,VWS V14.00,2013-03-28 22:56:00,
2013-03-29 00:57:00,53.7,48.0,30.01,North,0,4.6,4.6,81,0.00,,,0.00,VWS V14.00,2013-03-28 22:57:00,
2013-03-29 01:00:00,53.7,48.0,30.00,NNW,338,3.5,4.6,81,0.00,,,0.10,VWS V14.00,2013-03-28 23:00:00,
2013-03-29 01:01:00,53.7,48.0,30.00,NNW,338,3.5,3.5,81,0.00,,,0.00,VWS V14.00,2013-03-28 23:01:00,
2013-03-29 01:02:00,53.7,48.0,30.00,NNW,338,3.5,3.5,81,0.00,,,0.00,VWS V14.00,2013-03-28 23:02:00,
2013-03-29 01:05:00,53.7,48.0,30.01,NNE,22,2.2,2.2,81,0.00,,,0.00,VWS V14.00,2013-03-28 23:05:00,
2013-03-29 01:07:00,53.7,48.0,30.00,NW,315,1.3,2.2,81,0.00,,,0.00,VWS V14.00,2013-03-28 23:07:00,
2013-03-29 01:08:00,53.7,48.0,30.00,NW,315,1.3,2.2,81,0.00,,,0.00,VWS V14.00,2013-03-28 23:08:00,
2013-03-29 01:11:00,53.7,48.0,30.00,NNE,22,1.7,1.7,81,0.00,,,0.00,VWS V14.00,2013-03-28 23:11:00,
2013-03-29 01:12:00,53.7,48.0,30.00,North,0,4.6,4.6,81,0.00,,,0.00,VWS V14.00,2013-03-28 23:12:00,
2013-03-29 01:13:00,53.7,48.0,30.00,North,0,3.5,4.6,81,0.00,,,0.00,VWS V14.00,2013-03-28 23:13:00,
2013-03-29 01:16:00,53.6,47.9,30.00,NNW,338,0.6,0.6,81,0.00,,,0.00,VWS V14.00,2013-03-28 23:16:00,
2013-03-29 01:17:00,53.6,47.9,30.00,NNW,338,0.6,0.6,81,0.00,,,0.00,VWS V14.00,2013-03-28 23:17:00,
2013-03-29 01:18:00,53.4,48.0,30.01,NNW,338,0.0,0.6,82,0.00,,,0.00,VWS V14.00,2013-03-28 23:18:00,
2013-03-29 01:21:00,53.4,48.0,30.01,North,0,0.0,0.0,82,0.00,,,0.00,VWS V14.00,2013-03-28 23:21:00,
2013-03-29 01:22:00,53.4,48.0,30.00,NNW,338,0.6,0.6,82,0.00,,,0.00,VWS V14.00,2013-03-28 23:22:00,
2013-03-29 01:23:00,53.4,48.0,30.01,NNW,338,0.6,0.6,82,0.00,,,0.00,VWS V14.00,2013-03-28 23:23:00,
2013-03-29 01:26:00,53.4,48.0,30.00,North,0,2.6,2.6,82,0.00,,,0.00,VWS V14.00,2013-03-28 23:26:00,
2013-03-29 01:27:00,53.4,48.0,30.00,North,0,2.6,2.6,82,0.00,,,0.00,VWS V14.00,2013-03-28 23:27:00,
2013-03-29 01:28:00,53.4,48.0,30.00,North,0,2.4,2.6,82,0.00,,,0.00,VWS V14.00,2013-03-28 23:28:00,
2013-03-29 01:31:00,53.4,48.0,30.01,NW,315,2.0,2.0,82,0.00,,,0.00,VWS V14.00,2013-03-28 23:31:00,
2013-03-29 01:32:00,53.4,48.0,30.01,NW,315,2.0,2.0,82,0.00,,,0.00,VWS V14.00,2013-03-28 23:32:00,
2013-03-29 01:33:00,53.4,48.0,30.01,NNW,338,3.1,3.1,82,0.00,,,0.00,VWS V14.00,2013-03-28 23:33:00,
2013-03-29 01:36:00,53.4,48.0,30.00,North,0,4.2,4.2,82,0.00,,,0.00,VWS V14.00,2013-03-28 23:36:00,
2013-03-29 01:37:00,53.4,48.0,30.00,NNW,338,2.6,4.2,82,0.00,,,0.00,VWS V14.00,2013-03-28 23:37:00,
2013-03-29 01:38:00,53.4,48.0,30.00,NNW,338,2.6,4.2,82,0.00,,,0.00,VWS V14.00,2013-03-28 23:38:00,
2013-03-29 01:41:00,53.4,48.0,30.00,North,0,0.0,0.0,82,0.00,,,0.00,VWS V14.00,2013-03-28 23:41:00,
2013-03-29 01:42:00,53.4,48.0,30.00,North,0,0.0,0.0,82,0.00,,,0.00,VWS V14.00,2013-03-28 23:42:00,
2013-03-29 01:43:00,53.4,48.0,30.00,North,0,0.0,0.0,82,0.00,,,0.00,VWS V14.00,2013-03-28 23:43:00,
2013-03-29 01:44:00,53.4,48.0,30.00,North,0,0.0,0.0,82,0.00,,,0.00,VWS V14.00,2013-03-28 23:44:00,
2013-03-29 01:46:00,53.4,48.0,30.00,NNW,338,0.0,0.0,82,0.00,,,0.00,VWS V14.00,2013-03-28 23:46:00,
2013-03-29 01:47:00,53.4,48.0,30.00,North,0,1.3,1.3,82,0.00,,,0.00,VWS V14.00,2013-03-28 23:47:00,
2013-03-29 01:48:00,53.4,48.0,30.00,North,0,1.3,1.3,82,0.00,,,0.00,VWS V14.00,2013-03-28 23:48:00,
2013-03-29 01:49:00,53.4,48.0,30.00,North,0,1.3,1.3,82,0.00,,,0.00,VWS V14.00,2013-03-28 23:49:00,
2013-03-29 01:51:00,53.4,48.0,30.00,NNE,22,0.0,2.2,82,0.00,,,0.00,VWS V14.00,2013-03-28 23:51:00,
2013-03-29 01:52:00,53.4,48.0,30.00,NNE,22,0.0,2.2,82,0.00,,,0.00,VWS V14.00,2013-03-28 23:52:00,
2013-03-29 01:53:00,53.4,48.0,30.00,NNE,22,0.0,2.2,82,0.00,,,0.00,VWS V14.00,2013-03-28 23:53:00,
2013-03-29 01:54:00,53.4,48.0,30.00,NNE,22,0.0,2.2,82,0.00,,,0.00,VWS V14.00,2013-03-28 23:54:00,
2013-03-29 01:57:00,53.4,48.0,30.00,NE,45,2.2,2.2,82,0.00,,,0.00,VWS V14.00,2013-03-28 23:57:00,
2013-03-29 01:58:00,53.4,48.0,30.00,NE,45,0.0,2.2,82,0.00,,,0.00,VWS V14.00,2013-03-28 23:58:00,
2013-03-29 01:59:00,53.4,48.0,29.99,NE,45,0.0,2.2,82,0.00,,,0.00,VWS V14.00,2013-03-28 23:59:00,
2013-03-29 02:02:00,53.6,48.2,30.00,North,0,0.0,0.0,82,0.00,,,0.00,VWS V14.00,2013-03-29 00:02:00,
2013-03-29 02:03:00,53.7,48.3,30.00,North,0,0.8,0.8,82,0.00,,,0.00,VWS V14.00,2013-03-29 00:03:00,
2013-03-29 02:04:00,53.7,48.3,30.00,North,0,0.8,0.8,82,0.00,,,0.00,VWS V14.00,2013-03-29 00:04:00,
2013-03-29 02:07:00,53.7,48.3,30.00,NNE,22,0.0,0.0,82,0.00,,,0.00,VWS V14.00,2013-03-29 00:07:00,
2013-03-29 02:08:00,53.7,48.3,29.99,NNE,22,0.0,0.0,82,0.00,,,0.00,VWS V14.00,2013-03-29 00:08:00,
2013-03-29 02:09:00,53.7,48.3,30.00,NNW,338,0.0,0.0,82,0.00,,,0.00,VWS V14.00,2013-03-29 00:09:00,
2013-03-29 02:12:00,53.7,48.3,30.00,NNW,338,0.6,0.6,82,0.00,,,0.00,VWS V14.00,2013-03-29 00:12:00,
2013-03-29 02:13:00,53.7,48.3,30.00,NW,315,0.0,0.6,82,0.00,,,0.00,VWS V14.00,2013-03-29 00:13:00,
2013-03-29 02:14:00,53.7,48.3,30.00,NW,315,0.0,0.6,82,0.00,,,0.00,VWS V14.00,2013-03-29 00:14:00,
2013-03-29 02:17:00,53.7,48.3,30.00,NNW,338,1.5,1.5,82,0.00,,,0.00,VWS V14.00,2013-03-29 00:17:00,
2013-03-29 02:18:00,53.7,48.3,30.00,NNW,338,0.0,1.5,82,0.00,,,0.00,VWS V14.00,2013-03-29 00:18:00,
2013-03-29 02:19:00,53.7,48.3,30.00,NNW,338,0.0,1.5,82,0.00,,,0.00,VWS V14.00,2013-03-29 00:19:00,
2013-03-29 02:22:00,53.7,48.3,30.00,North,0,0.0,0.0,82,0.00,,,0.00,VWS V14.00,2013-03-29 00:22:00,
2013-03-29 02:23:00,53.7,48.3,30.00,North,0,0.0,0.0,82,0.00,,,0.00,VWS V14.00,2013-03-29 00:23:00,
2013-03-29 02:24:00,53.7,48.3,30.00,North,0,0.0,0.0,82,0.00,,,0.00,VWS V14.00,2013-03-29 00:24:00,
2013-03-29 02:27:00,53.7,48.3,30.00,North,0,2.0,2.0,82,0.00,,,0.00,VWS V14.00,2013-03-29 00:27:00,
2013-03-29 02:28:00,53.7,48.3,30.00,North,0,2.0,2.0,82,0.00,,,0.00,VWS V14.00,2013-03-29 00:28:00,
2013-03-29 02:29:00,53.7,48.3,30.00,North,0,2.0,2.0,82,0.00,,,0.00,VWS V14.00,2013-03-29 00:29:00,
2013-03-29 02:32:00,53.7,48.3,29.99,NNW,338,0.6,0.6,82,0.00,,,0.00,VWS V14.00,2013-03-29 00:32:00,
2013-03-29 02:33:00,53.7,48.3,30.00,NE,45,1.1,1.1,82,0.00,,,0.00,VWS V14.00,2013-03-29 00:33:00,
2013-03-29 02:34:00,53.7,48.3,29.99,North,0,2.6,2.6,82,0.00,,,0.00,VWS V14.00,2013-03-29 00:34:00,
2013-03-29 02:38:00,53.6,48.2,30.00,ENE,68,1.5,2.6,82,0.00,,,0.00,VWS V14.00,2013-03-29 00:38:00,
2013-03-29 02:40:00,53.6,48.2,29.99,North,0,4.4,4.4,82,0.00,,,0.00,VWS V14.00,2013-03-29 00:40:00,
2013-03-29 02:43:00,53.4,48.0,30.00,North,0,1.5,1.5,82,0.00,,,0.00,VWS V14.00,2013-03-29 00:43:00,
2013-03-29 02:44:00,53.4,48.0,30.00,North,0,1.5,1.5,82,0.00,,,0.00,VWS V14.00,2013-03-29 00:44:00,
2013-03-29 02:45:00,53.4,48.0,30.00,North,0,1.5,1.5,82,0.00,,,0.00,VWS V14.00,2013-03-29 00:45:00,
2013-03-29 02:48:00,53.4,48.0,30.00,NNE,22,3.1,3.1,82,0.00,,,0.00,VWS V14.00,2013-03-29 00:48:00,
2013-03-29 02:49:00,53.4,48.0,29.99,NNE,22,3.1,3.1,82,0.00,,,0.00,VWS V14.00,2013-03-29 00:49:00,
2013-03-29 02:50:00,53.4,48.0,29.99,North,0,0.0,3.1,82,0.00,,,0.00,VWS V14.00,2013-03-29 00:50:00,
2013-03-29 02:53:00,53.4,48.0,29.99,North,0,3.8,3.8,82,0.00,,,0.00,VWS V14.00,2013-03-29 00:53:00,
2013-03-29 02:54:00,53.4,48.0,29.99,NNW,338,0.8,3.8,82,0.00,,,0.00,VWS V14.00,2013-03-29 00:54:00,
2013-03-29 02:55:00,53.4,48.0,29.99,NNW,338,0.8,3.8,82,0.00,,,0.00,VWS V14.00,2013-03-29 00:55:00,
2013-03-29 02:58:00,53.4,48.0,29.99,North,0,3.5,3.5,82,0.00,,,0.00,VWS V14.00,2013-03-29 00:58:00,
2013-03-29 02:59:00,53.4,48.4,29.99,North,0,3.5,3.5,83,0.00,,,0.00,VWS V14.00,2013-03-29 00:59:00,
2013-03-29 03:00:00,53.4,48.4,29.99,North,0,3.5,3.5,83,0.00,,,0.00,VWS V14.00,2013-03-29 01:00:00,
2013-03-29 03:03:00,53.4,48.4,29.99,NNW,338,0.0,1.7,83,0.00,,,0.00,VWS V14.00,2013-03-29 01:03:00,
2013-03-29 03:04:00,53.4,48.4,29.99,NNW,338,0.0,1.7,83,0.00,,,0.00,VWS V14.00,2013-03-29 01:04:00,
2013-03-29 03:05:00,53.2,48.2,29.99,North,0,2.2,2.2,83,0.00,,,0.00,VWS V14.00,2013-03-29 01:05:00,
2013-03-29 03:08:00,53.2,48.2,29.99,North,0,2.2,2.2,83,0.00,,,0.00,VWS V14.00,2013-03-29 01:08:00,
2013-03-29 03:09:00,53.2,48.2,29.99,NNE,22,1.3,2.2,83,0.00,,,0.00,VWS V14.00,2013-03-29 01:09:00,
2013-03-29 03:10:00,53.2,48.2,29.99,NNE,22,1.3,2.2,83,0.00,,,0.00,VWS V14.00,2013-03-29 01:10:00,
2013-03-29 03:13:00,53.2,48.2,29.99,North,0,1.7,1.7,83,0.00,,,0.00,VWS V14.00,2013-03-29 01:13:00,
2013-03-29 03:14:00,53.2,48.2,29.99,North,0,1.7,1.7,83,0.00,,,0.00,VWS V14.00,2013-03-29 01:14:00,
2013-03-29 03:15:00,53.2,48.2,29.99,North,0,1.7,1.7,83,0.00,,,0.00,VWS V14.00,2013-03-29 01:15:00,
2013-03-29 03:18:00,53.2,48.2,29.99,North,0,0.6,1.5,83,0.00,,,0.00,VWS V14.00,2013-03-29 01:18:00,
2013-03-29 03:19:00,53.2,48.2,29.99,North,0,0.6,1.5,83,0.00,,,0.00,VWS V14.00,2013-03-29 01:19:00,
2013-03-29 03:20:00,53.2,48.2,29.99,NW,315,2.0,2.0,83,0.00,,,0.00,VWS V14.00,2013-03-29 01:20:00,
2013-03-29 03:23:00,53.0,48.0,29.99,NNW,338,2.9,2.9,83,0.00,,,0.00,VWS V14.00,2013-03-29 01:23:00,
2013-03-29 03:24:00,53.0,48.0,29.99,NNW,338,2.9,2.9,83,0.00,,,0.00,VWS V14.00,2013-03-29 01:24:00,
2013-03-29 03:25:00,53.0,48.0,29.99,NNW,338,2.9,2.9,83,0.00,,,0.00,VWS V14.00,2013-03-29 01:25:00,
2013-03-29 03:29:00,52.8,47.8,29.99,North,0,0.8,3.3,83,0.00,,,0.00,VWS V14.00,2013-03-29 01:29:00,
2013-03-29 03:30:00,52.8,47.8,29.99,North,0,0.8,3.3,83,0.00,,,0.00,VWS V14.00,2013-03-29 01:30:00,
2013-03-29 03:34:00,52.8,47.8,29.99,North,0,0.8,0.8,83,0.00,,,0.00,VWS V14.00,2013-03-29 01:34:00,
2013-03-29 03:35:00,52.8,47.8,29.99,North,0,0.0,0.8,83,0.00,,,0.00,VWS V14.00,2013-03-29 01:35:00,
2013-03-29 03:39:00,52.8,47.8,29.99,NNW,338,1.5,1.5,83,0.00,,,0.00,VWS V14.00,2013-03-29 01:39:00,
2013-03-29 03:40:00,52.8,47.8,29.99,NNW,338,1.5,1.5,83,0.00,,,0.00,VWS V14.00,2013-03-29 01:40:00,
2013-03-29 03:44:00,52.8,47.8,29.99,North,0,0.0,0.8,83,0.00,,,0.00,VWS V14.00,2013-03-29 01:44:00,
2013-03-29 03:45:00,52.8,47.8,29.99,North,0,0.0,0.8,83,0.00,,,0.00,VWS V14.00,2013-03-29 01:45:00,
2013-03-29 03:49:00,52.8,47.8,29.99,NNW,338,1.1,1.3,83,0.00,,,0.00,VWS V14.00,2013-03-29 01:49:00,
2013-03-29 03:50:00,52.8,47.8,29.99,NW,315,0.0,1.3,83,0.00,,,0.00,VWS V14.00,2013-03-29 01:50:00,
2013-03-29 03:54:00,52.7,47.7,29.99,NE,45,1.3,2.2,83,0.00,,,0.00,VWS V14.00,2013-03-29 01:54:00,
2013-03-29 03:55:00,52.7,47.7,29.99,NE,45,1.3,2.2,83,0.00,,,0.00,VWS V14.00,2013-03-29 01:55:00,
2013-03-29 03:59:00,52.7,47.7,29.99,North,0,2.0,2.0,83,0.00,,,0.00,VWS V14.00,2013-03-29 01:59:00,
2013-03-29 04:00:00,52.7,47.7,29.99,North,0,2.0,2.0,83,0.00,,,0.00,VWS V14.00,2013-03-29 02:00:00,
2013-03-29 04:04:00,52.7,47.7,29.98,North,0,3.5,3.5,83,0.00,,,0.00,VWS V14.00,2013-03-29 02:04:00,
2013-03-29 04:05:00,52.7,47.7,29.98,North,0,3.5,3.5,83,0.00,,,0.00,VWS V14.00,2013-03-29 02:05:00,
2013-03-29 04:09:00,52.7,47.7,29.98,North,0,2.2,3.5,83,0.00,,,0.00,VWS V14.00,2013-03-29 02:09:00,
2013-03-29 04:10:00,52.7,47.7,29.98,North,0,2.2,3.5,83,0.00,,,0.00,VWS V14.00,2013-03-29 02:10:00,
2013-03-29 04:14:00,52.7,47.7,29.98,NNW,338,1.3,1.3,83,0.00,,,0.00,VWS V14.00,2013-03-29 02:14:00,
2013-03-29 04:15:00,52.7,47.7,29.98,NNW,338,1.3,1.3,83,0.00,,,0.00,VWS V14.00,2013-03-29 02:15:00,
2013-03-29 04:19:00,52.7,47.7,29.98,NNE,22,2.6,3.1,83,0.00,,,0.00,VWS V14.00,2013-03-29 02:19:00,
2013-03-29 04:20:00,52.7,47.7,29.98,NNE,22,2.6,3.1,83,0.00,,,0.00,VWS V14.00,2013-03-29 02:20:00,
2013-03-29 04:25:00,52.5,47.5,29.98,NNE,22,0.0,2.6,83,0.00,,,0.00,VWS V14.00,2013-03-29 02:25:00,
2013-03-29 04:30:00,52.5,47.5,29.98,NNW,338,2.4,2.4,83,0.00,,,0.00,VWS V14.00,2013-03-29 02:30:00,
2013-03-29 04:35:00,52.5,47.5,29.98,NNE,22,2.2,2.6,83,0.00,,,0.00,VWS V14.00,2013-03-29 02:35:00,
2013-03-29 04:40:00,52.5,47.5,29.98,North,0,4.0,4.0,83,0.00,,,0.00,VWS V14.00,2013-03-29 02:40:00,
2013-03-29 04:45:00,52.3,47.3,29.98,NNE,22,2.6,4.0,83,0.00,,,0.00,VWS V14.00,2013-03-29 02:45:00,
2013-03-29 04:50:00,52.3,47.3,29.98,NNW,338,2.4,2.4,83,0.00,,,0.00,VWS V14.00,2013-03-29 02:50:00,
2013-03-29 04:55:00,52.3,47.3,29.98,NNW,338,0.0,2.4,83,0.00,,,0.00,VWS V14.00,2013-03-29 02:55:00,
2013-03-29 04:56:00,52.3,47.3,29.98,NNW,338,0.0,0.0,83,0.00,,,0.00,VWS V14.00,2013-03-29 02:56:00,
2013-03-29 05:00:00,52.3,47.3,29.99,NNW,338,0.0,0.8,83,0.00,,,0.00,VWS V14.00,2013-03-29 03:00:00,
2013-03-29 05:01:00,52.3,47.3,29.99,North,0,0.0,0.0,83,0.00,,,0.00,VWS V14.00,2013-03-29 03:01:00,
2013-03-29 05:05:00,52.3,47.3,29.98,North,0,0.0,0.0,83,0.00,,,0.00,VWS V14.00,2013-03-29 03:05:00,
2013-03-29 05:06:00,52.3,47.3,29.98,North,0,0.0,0.0,83,0.00,,,0.00,VWS V14.00,2013-03-29 03:06:00,
2013-03-29 05:10:00,52.3,47.6,29.99,NNW,338,0.0,0.0,84,0.00,,,0.00,VWS V14.00,2013-03-29 03:10:00,
2013-03-29 05:11:00,52.3,47.6,29.99,NNW,338,0.0,0.0,84,0.00,,,0.00,VWS V14.00,2013-03-29 03:11:00,
2013-03-29 05:15:00,52.3,47.6,29.98,North,0,0.0,0.0,84,0.00,,,0.00,VWS V14.00,2013-03-29 03:15:00,
2013-03-29 05:16:00,52.3,47.6,29.99,NNW,338,0.0,0.0,84,0.00,,,0.00,VWS V14.00,2013-03-29 03:16:00,
2013-03-29 05:20:00,52.3,47.6,29.99,North,0,1.5,1.5,84,0.00,,,0.00,VWS V14.00,2013-03-29 03:20:00,
2013-03-29 05:21:00,52.3,47.6,29.99,North,0,1.5,1.5,84,0.00,,,0.00,VWS V14.00,2013-03-29 03:21:00,
2013-03-29 05:25:00,52.3,47.6,29.99,NNW,338,1.5,1.5,84,0.00,,,0.00,VWS V14.00,2013-03-29 03:25:00,
2013-03-29 05:26:00,52.3,47.6,29.99,NNW,338,2.0,2.0,84,0.00,,,0.00,VWS V14.00,2013-03-29 03:26:00,
2013-03-29 05:30:00,52.3,47.6,29.99,North,0,0.0,0.0,84,0.00,,,0.00,VWS V14.00,2013-03-29 03:30:00,
2013-03-29 05:32:00,52.3,47.6,29.99,North,0,0.0,0.0,84,0.00,,,0.00,VWS V14.00,2013-03-29 03:32:00,
2013-03-29 05:35:00,52.3,47.6,29.99,North,0,1.1,1.1,84,0.00,,,0.00,VWS V14.00,2013-03-29 03:35:00,
2013-03-29 05:36:00,52.3,47.6,29.99,North,0,1.1,1.1,84,0.00,,,0.00,VWS V14.00,2013-03-29 03:36:00,
2013-03-29 05:37:00,52.5,47.8,29.99,North,0,0.8,1.1,84,0.00,,,0.00,VWS V14.00,2013-03-29 03:37:00,
2013-03-29 05:40:00,52.5,47.8,29.99,North,0,1.5,1.5,84,0.00,,,0.00,VWS V14.00,2013-03-29 03:40:00,
2013-03-29 05:41:00,52.5,47.8,29.99,North,0,1.5,1.5,84,0.00,,,0.00,VWS V14.00,2013-03-29 03:41:00,
2013-03-29 05:42:00,52.5,47.8,29.99,North,0,0.0,1.5,84,0.00,,,0.00,VWS V14.00,2013-03-29 03:42:00,
2013-03-29 05:45:00,52.7,48.0,29.99,North,0,2.0,2.0,84,0.00,,,0.00,VWS V14.00,2013-03-29 03:45:00,
2013-03-29 05:46:00,52.7,48.0,29.99,North,0,2.0,2.0,84,0.00,,,0.00,VWS V14.00,2013-03-29 03:46:00,
2013-03-29 05:48:00,52.7,48.0,29.99,North,0,0.0,2.0,84,0.00,,,0.00,VWS V14.00,2013-03-29 03:48:00,
2013-03-29 05:50:00,52.7,48.0,29.99,NNW,338,0.6,0.6,84,0.00,,,0.00,VWS V14.00,2013-03-29 03:50:00,
2013-03-29 05:51:00,52.7,48.0,29.99,NNW,338,0.6,0.6,84,0.00,,,0.00,VWS V14.00,2013-03-29 03:51:00,
2013-03-29 05:53:00,52.7,48.0,29.99,North,0,2.9,2.9,84,0.00,,,0.00,VWS V14.00,2013-03-29 03:53:00,
2013-03-29 05:56:00,52.7,48.0,29.99,NNE,22,1.3,1.3,84,0.00,,,0.00,VWS V14.00,2013-03-29 03:56:00,
2013-03-29 05:58:00,52.7,48.0,29.99,North,0,0.6,1.3,84,0.00,,,0.00,VWS V14.00,2013-03-29 03:58:00,
2013-03-29 06:00:00,52.8,48.1,29.99,NNE,22,0.0,1.3,84,0.00,,,0.00,VWS V14.00,2013-03-29 04:00:00,
2013-03-29 06:05:00,52.8,48.1,30.00,North,0,0.8,0.8,84,0.00,,,0.00,VWS V14.00,2013-03-29 04:05:00,
2013-03-29 06:10:00,52.8,48.1,30.00,NE,45,0.0,0.8,84,0.00,,,0.00,VWS V14.00,2013-03-29 04:10:00,
2013-03-29 06:15:00,53.2,48.5,30.00,North,0,0.0,0.8,84,0.00,,,0.00,VWS V14.00,2013-03-29 04:15:00,
2013-03-29 06:16:00,53.2,48.5,30.00,North,0,0.6,0.6,84,0.00,,,0.00,VWS V14.00,2013-03-29 04:16:00,
2013-03-29 06:20:00,53.2,48.5,30.00,NE,45,0.0,0.8,84,0.00,,,0.00,VWS V14.00,2013-03-29 04:20:00,
2013-03-29 06:21:00,53.2,48.5,30.00,NE,45,0.0,0.0,84,0.00,,,0.00,VWS V14.00,2013-03-29 04:21:00,
2013-03-29 06:25:00,53.2,48.5,30.00,NNW,338,0.0,0.0,84,0.00,,,0.00,VWS V14.00,2013-03-29 04:25:00,
2013-03-29 06:26:00,53.2,48.5,30.00,NNE,22,0.6,0.6,84,0.00,,,0.00,VWS V14.00,2013-03-29 04:26:00,
2013-03-29 06:30:00,53.2,48.5,30.00,NNE,22,0.8,0.8,84,0.00,,,0.00,VWS V14.00,2013-03-29 04:30:00,
2013-03-29 06:32:00,53.2,48.5,30.00,NE,45,0.0,0.0,84,0.00,,,0.00,VWS V14.00,2013-03-29 04:32:00,
2013-03-29 06:35:00,53.4,48.7,30.00,NE,45,1.3,1.3,84,0.00,,,0.00,VWS V14.00,2013-03-29 04:35:00,
2013-03-29 06:37:00,53.4,48.7,30.00,North,0,0.0,1.3,84,0.00,,,0.00,VWS V14.00,2013-03-29 04:37:00,
2013-03-29 06:40:00,53.4,48.7,30.00,NNE,22,0.0,1.3,84,0.00,,,0.00,VWS V14.00,2013-03-29 04:40:00,
2013-03-29 06:42:00,53.4,48.7,30.01,NNE,22,0.0,0.0,84,0.00,,,0.00,VWS V14.00,2013-03-29 04:42:00,
2013-03-29 06:45:00,53.4,48.7,30.00,ENE,68,0.0,0.0,84,0.00,,,0.00,VWS V14.00,2013-03-29 04:45:00,
2013-03-29 06:47:00,53.4,48.7,30.00,East,90,1.1,1.1,84,0.00,,,0.00,VWS V14.00,2013-03-29 04:47:00,
2013-03-29 06:50:00,53.4,48.7,30.01,ENE,68,0.0,1.1,84,0.00,,,0.00,VWS V14.00,2013-03-29 04:50:00,
2013-03-29 06:52:00,53.7,49.0,30.01,NE,45,0.0,0.0,84,0.00,,,0.00,VWS V14.00,2013-03-29 04:52:00,
2013-03-29 06:55:00,53.7,49.0,30.01,NNE,22,0.0,0.0,84,0.00,,,0.00,VWS V14.00,2013-03-29 04:55:00,
2013-03-29 06:57:00,53.7,49.0,30.01,NNW,338,0.8,0.8,84,0.00,,,0.00,VWS V14.00,2013-03-29 04:57:00,
2013-03-29 07:00:00,53.9,49.2,30.01,WNW,292,0.0,0.0,84,0.00,,,0.00,VWS V14.00,2013-03-29 05:00:00,
2013-03-29 07:02:00,53.9,49.2,30.01,North,0,3.5,3.5,84,0.00,,,0.00,VWS V14.00,2013-03-29 05:02:00,
2013-03-29 07:05:00,53.9,49.2,30.01,North,0,1.3,1.3,84,0.00,,,0.00,VWS V14.00,2013-03-29 05:05:00,
2013-03-29 07:07:00,54.1,49.4,30.01,North,0,2.4,2.4,84,0.00,,,0.00,VWS V14.00,2013-03-29 05:07:00,
2013-03-29 07:10:00,54.1,49.4,30.01,NNW,338,0.0,0.0,84,0.00,,,0.00,VWS V14.00,2013-03-29 05:10:00,
2013-03-29 07:11:00,54.1,49.4,30.01,NNW,338,0.0,0.0,84,0.00,,,0.00,VWS V14.00,2013-03-29 05:11:00,
2013-03-29 07:12:00,54.1,49.4,30.01,North,0,0.0,0.0,84,0.00,,,0.00,VWS V14.00,2013-03-29 05:12:00,
2013-03-29 07:15:00,54.1,49.4,30.02,NNE,22,2.2,2.2,84,0.00,,,0.00,VWS V14.00,2013-03-29 05:15:00,
2013-03-29 07:16:00,54.1,49.4,30.02,NNE,22,2.2,2.2,84,0.00,,,0.00,VWS V14.00,2013-03-29 05:16:00,
2013-03-29 07:18:00,54.3,49.6,30.02,North,0,2.4,2.4,84,0.00,,,0.00,VWS V14.00,2013-03-29 05:18:00,
2013-03-29 07:20:00,54.1,49.4,30.01,North,0,0.0,0.0,84,0.00,,,0.00,VWS V14.00,2013-03-29 05:20:00,
2013-03-29 07:23:00,54.1,49.4,30.01,NNW,338,2.2,2.2,84,0.00,,,0.00,VWS V14.00,2013-03-29 05:23:00,
2013-03-29 07:25:00,54.1,49.4,30.01,NNW,338,0.0,0.0,84,0.00,,,0.00,VWS V14.00,2013-03-29 05:25:00,
2013-03-29 07:26:00,54.1,49.4,30.01,NNW,338,0.0,0.0,84,0.00,,,0.00,VWS V14.00,2013-03-29 05:26:00,
2013-03-29 07:28:00,54.1,49.4,30.01,NE,45,3.3,3.3,84,0.00,,,0.00,VWS V14.00,2013-03-29 05:28:00,
2013-03-29 07:30:00,54.3,49.6,30.01,NNW,338,2.4,2.4,84,0.00,,,0.00,VWS V14.00,2013-03-29 05:30:00,
2013-03-29 07:31:00,54.3,49.6,30.01,NNW,338,2.4,2.4,84,0.00,,,0.00,VWS V14.00,2013-03-29 05:31:00,
2013-03-29 07:33:00,54.3,49.6,30.02,North,0,4.2,4.2,84,0.00,,,0.00,VWS V14.00,2013-03-29 05:33:00,
2013-03-29 07:36:00,54.3,49.6,30.02,NW,315,0.8,0.8,84,0.00,,,0.00,VWS V14.00,2013-03-29 05:36:00,
2013-03-29 07:38:00,54.3,49.6,30.02,North,0,0.8,0.8,84,0.00,,,0.00,VWS V14.00,2013-03-29 05:38:00,
2013-03-29 07:41:00,54.5,49.8,30.02,North,0,1.3,1.3,84,0.00,,,0.00,VWS V14.00,2013-03-29 05:41:00,
2013-03-29 07:42:00,54.6,49.9,30.01,North,0,0.6,1.3,84,0.00,,,0.00,VWS V14.00,2013-03-29 05:42:00,
2013-03-29 07:43:00,54.8,50.1,30.01,NW,315,1.3,1.3,84,0.00,,,0.00,VWS V14.00,2013-03-29 05:43:00,
2013-03-29 07:46:00,55.0,50.3,30.01,NNE,22,0.0,0.0,84,0.00,,,0.00,VWS V14.00,2013-03-29 05:46:00,
2013-03-29 07:47:00,55.0,50.3,30.01,NNE,22,0.0,0.0,84,0.00,,,0.00,VWS V14.00,2013-03-29 05:47:00,
2013-03-29 07:48:00,55.0,50.6,30.01,NE,45,4.0,4.0,85,0.00,,,0.00,VWS V14.00,2013-03-29 05:48:00,
2013-03-29 07:51:00,55.2,50.5,30.01,NE,45,0.8,0.8,84,0.00,,,0.00,VWS V14.00,2013-03-29 05:51:00,
2013-03-29 07:52:00,55.2,50.5,30.01,NE,45,0.8,0.8,84,0.00,,,0.00,VWS V14.00,2013-03-29 05:52:00,
2013-03-29 07:53:00,55.5,50.8,30.01,East,90,0.0,0.8,84,0.00,,,0.00,VWS V14.00,2013-03-29 05:53:00,
2013-03-29 07:56:00,55.7,51.0,30.01,ESE,112,0.0,0.0,84,0.00,,,0.00,VWS V14.00,2013-03-29 05:56:00,
2013-03-29 07:57:00,55.9,50.8,30.01,East,90,3.1,3.1,83,0.00,,,0.00,VWS V14.00,2013-03-29 05:57:00,
2013-03-29 07:58:00,56.1,51.0,30.01,ESE,112,1.3,3.1,83,0.00,,,0.00,VWS V14.00,2013-03-29 05:58:00,
2013-03-29 08:01:00,56.1,51.0,30.01,East,90,0.0,0.0,83,0.00,,,0.00,VWS V14.00,2013-03-29 06:01:00,
2013-03-29 08:02:00,56.1,51.0,30.01,East,90,0.0,0.0,83,0.00,,,0.00,VWS V14.00,2013-03-29 06:02:00,
2013-03-29 08:03:00,56.3,50.9,30.01,East,90,0.0,0.0,82,0.00,,,0.00,VWS V14.00,2013-03-29 06:03:00,
2013-03-29 08:06:00,56.4,51.0,30.01,NE,45,0.0,0.0,82,0.00,,,0.00,VWS V14.00,2013-03-29 06:06:00,
2013-03-29 08:07:00,56.4,51.0,30.01,NE,45,0.0,0.0,82,0.00,,,0.00,VWS V14.00,2013-03-29 06:07:00,
2013-03-29 08:09:00,56.4,51.0,30.01,NNW,338,0.0,0.0,82,0.00,,,0.00,VWS V14.00,2013-03-29 06:09:00,
2013-03-29 08:11:00,56.4,51.0,30.01,ENE,68,1.5,1.5,82,0.00,,,0.00,VWS V14.00,2013-03-29 06:11:00,
2013-03-29 08:12:00,56.8,51.4,30.01,ENE,68,0.0,1.5,82,0.00,,,0.00,VWS V14.00,2013-03-29 06:12:00,
2013-03-29 08:14:00,56.8,51.0,30.01,ENE,68,0.0,1.5,81,0.00,,,0.00,VWS V14.00,2013-03-29 06:14:00,
2013-03-29 08:16:00,57.0,51.2,30.01,NNE,22,0.0,0.0,81,0.00,,,0.00,VWS V14.00,2013-03-29 06:16:00,
2013-03-29 08:17:00,57.0,51.2,30.01,NNE,22,0.0,0.0,81,0.00,,,0.00,VWS V14.00,2013-03-29 06:17:00,
2013-03-29 08:19:00,57.0,51.2,30.01,WNW,292,0.0,0.0,81,0.00,,,0.00,VWS V14.00,2013-03-29 06:19:00,
2013-03-29 08:22:00,57.0,50.9,30.01,NE,45,0.0,0.0,80,0.00,,,0.00,VWS V14.00,2013-03-29 06:22:00,
2013-03-29 08:24:00,57.3,51.5,30.01,NNW,338,0.0,0.0,81,0.00,,,0.00,VWS V14.00,2013-03-29 06:24:00,
2013-03-29 08:27:00,57.3,51.2,30.00,NE,45,0.0,1.7,80,0.00,,,0.00,VWS V14.00,2013-03-29 06:27:00,
2013-03-29 08:29:00,57.3,51.2,30.00,East,90,0.0,1.7,80,0.00,,,0.00,VWS V14.00,2013-03-29 06:29:00,
2013-03-29 08:32:00,57.5,51.4,30.01,NNE,22,0.0,0.0,80,0.00,,,0.00,VWS V14.00,2013-03-29 06:32:00,
2013-03-29 08:34:00,57.5,51.0,30.00,North,0,1.1,1.1,79,0.00,,,0.00,VWS V14.00,2013-03-29 06:34:00,
2013-03-29 08:37:00,57.7,51.2,30.01,East,90,0.0,0.0,79,0.00,,,0.00,VWS V14.00,2013-03-29 06:37:00,
2013-03-29 08:38:00,57.7,51.2,30.00,WNW,292,0.0,0.0,79,0.00,,,0.00,VWS V14.00,2013-03-29 06:38:00,
2013-03-29 08:39:00,57.7,51.2,30.00,WNW,292,0.0,0.0,79,0.00,,,0.00,VWS V14.00,2013-03-29 06:39:00,
2013-03-29 08:42:00,57.9,51.4,30.01,ENE,68,1.3,1.3,79,0.00,,,0.00,VWS V14.00,2013-03-29 06:42:00,
2013-03-29 08:43:00,57.9,51.4,30.01,ENE,68,1.3,1.3,79,0.00,,,0.00,VWS V14.00,2013-03-29 06:43:00,
2013-03-29 08:44:00,57.9,51.4,30.01,SE,135,0.0,1.3,79,0.00,,,0.00,VWS V14.00,2013-03-29 06:44:00,
2013-03-29 08:47:00,58.1,51.6,30.01,SE,135,0.0,0.0,79,0.00,,,0.00,VWS V14.00,2013-03-29 06:47:00,
2013-03-29 08:48:00,58.1,51.6,30.01,SE,135,0.0,0.0,79,0.00,,,0.00,VWS V14.00,2013-03-29 06:48:00,
2013-03-29 08:49:00,58.1,51.6,30.01,SE,135,0.0,0.0,79,0.00,,,0.00,VWS V14.00,2013-03-29 06:49:00,
2013-03-29 08:52:00,58.2,51.4,30.01,NNE,22,0.0,0.8,78,0.00,,,0.00,VWS V14.00,2013-03-29 06:52:00,
2013-03-29 08:53:00,58.2,51.4,30.01,NNE,22,0.0,0.8,78,0.00,,,0.00,VWS V14.00,2013-03-29 06:53:00,
2013-03-29 08:54:00,58.2,51.4,30.01,NNE,22,0.0,0.8,78,0.00,,,0.00,VWS V14.00,2013-03-29 06:54:00,
2013-03-29 08:58:00,58.2,51.4,30.01,NNW,338,0.0,0.0,78,0.00,,,0.00,VWS V14.00,2013-03-29 06:58:00,
2013-03-29 08:59:00,58.4,51.6,30.01,WNW,292,1.5,1.5,78,0.00,,,0.00,VWS V14.00,2013-03-29 06:59:00,
2013-03-29 09:03:00,58.4,51.2,30.01,WNW,292,0.8,0.8,77,0.00,,,0.00,VWS V14.00,2013-03-29 07:03:00,
2013-03-29 09:04:00,58.4,51.2,30.01,WNW,292,0.8,0.8,77,0.00,,,0.00,VWS V14.00,2013-03-29 07:04:00,
2013-03-29 09:08:00,58.2,51.0,30.01,WNW,292,0.0,0.0,77,0.00,,,0.00,VWS V14.00,2013-03-29 07:08:00,
2013-03-29 09:09:00,58.2,51.0,30.01,WNW,292,0.0,0.0,77,0.00,,,0.00,VWS V14.00,2013-03-29 07:09:00,
2013-03-29 09:13:00,58.8,51.3,30.00,NNE,22,0.0,0.8,76,0.00,,,0.00,VWS V14.00,2013-03-29 07:13:00,
2013-03-29 09:14:00,58.8,51.3,30.00,NW,315,0.0,0.8,76,0.00,,,0.00,VWS V14.00,2013-03-29 07:14:00,
2013-03-29 09:18:00,58.8,51.3,30.00,NE,45,0.8,0.8,76,0.00,,,0.00,VWS V14.00,2013-03-29 07:18:00,
2013-03-29 09:19:00,58.8,51.3,30.01,NE,45,0.8,0.8,76,0.00,,,0.00,VWS V14.00,2013-03-29 07:19:00,
2013-03-29 09:23:00,58.8,50.9,30.00,WNW,292,1.5,1.5,75,0.00,,,0.00,VWS V14.00,2013-03-29 07:23:00,
2013-03-29 09:24:00,58.8,50.9,30.00,WNW,292,1.5,1.5,75,0.00,,,0.00,VWS V14.00,2013-03-29 07:24:00,
2013-03-29 09:28:00,58.8,50.9,30.01,West,270,1.5,1.5,75,0.00,,,0.00,VWS V14.00,2013-03-29 07:28:00,
2013-03-29 09:29:00,59.0,51.1,30.00,WSW,248,0.8,1.5,75,0.00,,,0.00,VWS V14.00,2013-03-29 07:29:00,
2013-03-29 09:33:00,59.1,50.8,30.00,SSW,202,2.2,2.9,74,0.00,,,0.00,VWS V14.00,2013-03-29 07:33:00,
2013-03-29 09:34:00,59.1,50.8,30.00,SSW,202,2.2,2.9,74,0.00,,,0.00,VWS V14.00,2013-03-29 07:34:00,
2013-03-29 09:38:00,59.3,51.0,30.01,WSW,248,0.8,1.1,74,0.00,,,0.00,VWS V14.00,2013-03-29 07:38:00,
2013-03-29 09:39:00,59.3,51.0,30.01,WSW,248,0.8,1.1,74,0.00,,,0.00,VWS V14.00,2013-03-29 07:39:00,
2013-03-29 09:44:00,59.5,50.8,30.02,West,270,2.9,3.3,73,0.00,,,0.00,VWS V14.00,2013-03-29 07:44:00,
2013-03-29 09:49:00,59.3,50.7,30.01,SSW,202,1.3,2.9,73,0.00,,,0.00,VWS V14.00,2013-03-29 07:49:00,
2013-03-29 09:54:00,59.3,50.7,30.01,South,180,0.0,1.1,73,0.00,,,0.00,VWS V14.00,2013-03-29 07:54:00,
2013-03-29 09:59:00,59.5,50.5,30.01,WSW,248,1.5,2.6,72,0.00,,,0.00,VWS V14.00,2013-03-29 07:59:00,
2013-03-29 10:00:00,59.5,50.5,30.01,WSW,248,1.5,2.6,72,0.00,,,0.00,VWS V14.00,2013-03-29 08:00:00,
2013-03-29 10:04:00,59.5,50.8,30.01,WSW,248,1.5,1.7,73,0.00,,,0.00,VWS V14.00,2013-03-29 08:04:00,
2013-03-29 10:09:00,59.5,50.8,30.01,NW,315,1.5,1.5,73,0.00,,,0.00,VWS V14.00,2013-03-29 08:09:00,
2013-03-29 10:10:00,59.5,50.8,30.01,WNW,292,0.0,1.5,73,0.00,,,0.00,VWS V14.00,2013-03-29 08:10:00,
2013-03-29 10:14:00,59.7,51.0,30.01,West,270,0.0,0.8,73,0.00,,,0.00,VWS V14.00,2013-03-29 08:14:00,
2013-03-29 10:15:00,59.7,51.0,30.01,West,270,0.0,0.8,73,0.00,,,0.00,VWS V14.00,2013-03-29 08:15:00,
2013-03-29 10:19:00,59.9,50.9,30.01,SSE,158,0.0,0.0,72,0.00,,,0.00,VWS V14.00,2013-03-29 08:19:00,
2013-03-29 10:20:00,60.0,51.0,30.01,SSW,202,2.6,2.6,72,0.00,,,0.00,VWS V14.00,2013-03-29 08:20:00,
2013-03-29 10:24:00,60.4,51.7,30.01,West,270,5.3,5.3,73,0.00,,,0.00,VWS V14.00,2013-03-29 08:24:00,
2013-03-29 10:25:00,60.4,51.7,30.01,West,270,5.3,5.3,73,0.00,,,0.00,VWS V14.00,2013-03-29 08:25:00,
2013-03-29 10:29:00,60.9,51.8,30.01,West,270,1.5,5.3,72,0.00,,,0.00,VWS V14.00,2013-03-29 08:29:00,
2013-03-29 10:30:00,60.9,51.8,30.01,West,270,1.5,5.3,72,0.00,,,0.00,VWS V14.00,2013-03-29 08:30:00,
2013-03-29 10:34:00,60.9,51.5,30.01,WSW,248,1.1,4.4,71,0.00,,,0.00,VWS V14.00,2013-03-29 08:34:00,
2013-03-29 10:35:00,60.9,51.5,30.01,WSW,248,1.1,4.4,71,0.00,,,0.00,VWS V14.00,2013-03-29 08:35:00,
2013-03-29 10:39:00,61.3,51.8,30.01,SW,225,0.0,2.2,71,0.00,,,0.00,VWS V14.00,2013-03-29 08:39:00,
2013-03-29 10:40:00,61.3,51.8,30.01,SW,225,0.0,2.2,71,0.00,,,0.00,VWS V14.00,2013-03-29 08:40:00,
2013-03-29 10:44:00,61.5,51.6,30.01,SW,225,2.0,2.0,70,0.00,,,0.00,VWS V14.00,2013-03-29 08:44:00,
2013-03-29 10:45:00,61.5,51.6,30.01,SW,225,2.0,2.0,70,0.00,,,0.00,VWS V14.00,2013-03-29 08:45:00,
2013-03-29 10:49:00,61.5,52.0,30.01,WSW,248,0.0,2.6,71,0.00,,,0.00,VWS V14.00,2013-03-29 08:49:00,
2013-03-29 10:50:00,61.5,52.0,30.01,WSW,248,0.0,2.6,71,0.00,,,0.00,VWS V14.00,2013-03-29 08:50:00,
2013-03-29 10:55:00,61.7,51.8,30.01,SW,225,2.6,4.6,70,0.00,,,0.00,VWS V14.00,2013-03-29 08:55:00,
2013-03-29 11:00:00,61.7,51.4,30.02,SW,225,4.0,4.0,69,0.00,,,0.00,VWS V14.00,2013-03-29 09:00:00,
2013-03-29 11:05:00,61.8,51.5,30.01,SSW,202,4.0,4.0,69,0.00,,,0.00,VWS V14.00,2013-03-29 09:05:00,
2013-03-29 11:10:00,62.4,51.7,30.01,WSW,248,0.6,4.0,68,0.00,,,0.00,VWS V14.00,2013-03-29 09:10:00,
2013-03-29 11:15:00,62.7,51.6,30.01,WSW,248,3.5,3.5,67,0.00,,,0.00,VWS V14.00,2013-03-29 09:15:00,
2013-03-29 11:20:00,63.6,52.0,30.01,South,180,2.0,6.9,66,0.00,,,0.00,VWS V14.00,2013-03-29 09:20:00,
2013-03-29 11:21:00,63.6,52.0,30.01,South,180,2.0,2.0,66,0.00,,,0.00,VWS V14.00,2013-03-29 09:21:00,
2013-03-29 11:25:00,64.0,52.0,30.01,NNE,22,0.0,6.2,65,0.00,,,0.00,VWS V14.00,2013-03-29 09:25:00,
2013-03-29 11:26:00,64.0,52.0,30.01,NNE,22,0.0,0.0,65,0.00,,,0.00,VWS V14.00,2013-03-29 09:26:00,
2013-03-29 11:30:00,64.0,52.0,30.01,WNW,292,0.6,1.1,65,0.00,,,0.00,VWS V14.00,2013-03-29 09:30:00,
2013-03-29 11:31:00,64.0,52.0,30.01,SSW,202,3.3,3.3,65,0.00,,,0.00,VWS V14.00,2013-03-29 09:31:00,
2013-03-29 11:35:00,64.2,51.8,30.01,SSW,202,1.1,3.3,64,0.00,,,0.00,VWS V14.00,2013-03-29 09:35:00,
2013-03-29 11:36:00,64.2,51.8,30.01,SSW,202,1.1,1.1,64,0.00,,,0.00,VWS V14.00,2013-03-29 09:36:00,
2013-03-29 11:40:00,64.5,51.6,30.01,WSW,248,6.0,6.0,63,0.00,,,0.00,VWS V14.00,2013-03-29 09:40:00,
2013-03-29 11:41:00,64.5,51.6,30.01,WSW,248,6.0,6.0,63,0.00,,,0.00,VWS V14.00,2013-03-29 09:41:00,
2013-03-29 11:45:00,64.5,51.6,30.00,SW,225,4.0,6.0,63,0.00,,,0.00,VWS V14.00,2013-03-29 09:45:00,
2013-03-29 11:46:00,64.7,51.8,30.00,WSW,248,4.4,4.4,63,0.00,,,0.00,VWS V14.00,2013-03-29 09:46:00,
2013-03-29 11:50:00,64.9,51.6,30.00,WNW,292,1.5,4.4,62,0.00,,,0.00,VWS V14.00,2013-03-29 09:50:00,
2013-03-29 11:52:00,64.9,51.6,30.00,SW,225,4.2,4.2,62,0.00,,,0.00,VWS V14.00,2013-03-29 09:52:00,
2013-03-29 11:55:00,64.9,51.6,30.00,SSW,202,1.5,4.2,62,0.00,,,0.00,VWS V14.00,2013-03-29 09:55:00,
2013-03-29 11:57:00,65.1,51.3,30.00,SW,225,2.2,2.2,61,0.00,,,0.00,VWS V14.00,2013-03-29 09:57:00,
2013-03-29 12:00:00,65.1,51.8,30.00,WSW,248,0.8,2.2,62,0.00,,,0.00,VWS V14.00,2013-03-29 10:00:00,
2013-03-29 12:02:00,65.1,51.8,30.00,SW,225,3.3,3.3,62,0.00,,,0.00,VWS V14.00,2013-03-29 10:02:00,
2013-03-29 12:05:00,65.1,51.3,30.00,SSE,158,1.5,3.3,61,0.00,,,0.00,VWS V14.00,2013-03-29 10:05:00,
2013-03-29 12:07:00,65.1,51.3,30.00,SW,225,3.5,3.5,61,0.00,,,0.00,VWS V14.00,2013-03-29 10:07:00,
2013-03-29 12:10:00,65.4,51.2,30.00,SE,135,1.5,3.5,60,0.00,,,0.00,VWS V14.00,2013-03-29 10:10:00,
2013-03-29 12:12:00,65.4,51.2,30.00,West,270,4.0,4.0,60,0.00,,,0.00,VWS V14.00,2013-03-29 10:12:00,
2013-03-29 12:15:00,65.4,51.2,30.00,SW,225,5.3,5.3,60,0.00,,,0.00,VWS V14.00,2013-03-29 10:15:00,
2013-03-29 12:17:00,65.4,51.6,30.00,SSW,202,7.1,7.1,61,0.00,,,0.00,VWS V14.00,2013-03-29 10:17:00,
2013-03-29 12:20:00,65.8,52.0,30.00,West,270,2.4,7.1,61,0.00,,,0.00,VWS V14.00,2013-03-29 10:20:00,
2013-03-29 12:21:00,65.8,52.0,30.00,West,270,2.4,2.4,61,0.00,,,0.00,VWS V14.00,2013-03-29 10:21:00,
2013-03-29 12:22:00,66.0,52.2,30.00,West,270,2.4,2.4,61,0.00,,,0.00,VWS V14.00,2013-03-29 10:22:00,
2013-03-29 12:25:00,66.0,52.2,30.00,NNW,338,0.0,6.0,61,0.00,,,0.00,VWS V14.00,2013-03-29 10:25:00,
2013-03-29 12:26:00,66.0,52.2,30.00,NNW,338,0.0,0.0,61,0.00,,,0.00,VWS V14.00,2013-03-29 10:26:00,
2013-03-29 12:27:00,66.0,52.2,30.00,WSW,248,6.7,6.7,61,0.00,,,0.00,VWS V14.00,2013-03-29 10:27:00,
2013-03-29 12:31:00,66.2,52.4,30.00,West,270,2.6,2.6,61,0.00,,,0.00,VWS V14.00,2013-03-29 10:31:00,
2013-03-29 12:32:00,66.2,52.4,30.00,West,270,2.6,2.6,61,0.00,,,0.00,VWS V14.00,2013-03-29 10:32:00,
2013-03-29 12:36:00,66.3,52.5,30.00,WSW,248,6.0,6.0,61,0.00,,,0.00,VWS V14.00,2013-03-29 10:36:00,
2013-03-29 12:37:00,66.5,52.2,30.00,West,270,0.0,6.0,60,0.00,,,0.00,VWS V14.00,2013-03-29 10:37:00,
2013-03-29 12:41:00,66.7,52.8,30.00,SW,225,10.2,10.2,61,0.00,,,0.00,VWS V14.00,2013-03-29 10:41:00,
2013-03-29 12:42:00,66.7,52.4,30.00,SSW,202,2.9,10.2,60,0.00,,,0.00,VWS V14.00,2013-03-29 10:42:00,
2013-03-29 12:46:00,66.7,51.9,30.00,SW,225,7.3,7.3,59,0.00,,,0.00,VWS V14.00,2013-03-29 10:46:00,
2013-03-29 12:47:00,66.5,52.2,30.00,WSW,248,1.1,7.3,60,0.00,,,0.00,VWS V14.00,2013-03-29 10:47:00,
2013-03-29 12:48:00,66.5,52.2,30.00,WSW,248,1.1,7.3,60,0.00,,,0.00,VWS V14.00,2013-03-29 10:48:00,
2013-03-29 12:51:00,66.5,51.8,30.00,WSW,248,14.9,14.9,59,0.00,,,0.00,VWS V14.00,2013-03-29 10:51:00,
2013-03-29 12:52:00,66.5,51.8,30.00,SSW,202,11.8,14.9,59,0.00,,,0.00,VWS V14.00,2013-03-29 10:52:00,
2013-03-29 12:53:00,66.5,51.8,30.00,SSW,202,11.8,14.9,59,0.00,,,0.00,VWS V14.00,2013-03-29 10:53:00,
2013-03-29 12:54:00,66.5,51.3,30.00,SSW,202,11.8,14.9,58,0.00,,,0.00,VWS V14.00,2013-03-29 10:54:00,
2013-03-29 12:56:00,66.7,51.5,30.00,SW,225,7.3,7.3,58,0.00,,,0.00,VWS V14.00,2013-03-29 10:56:00,
2013-03-29 12:57:00,66.7,51.0,30.00,WNW,292,1.1,7.3,57,0.00,,,0.00,VWS V14.00,2013-03-29 10:57:00,
2013-03-29 12:58:00,66.7,51.0,30.00,WNW,292,1.1,7.3,57,0.00,,,0.00,VWS V14.00,2013-03-29 10:58:00,
2013-03-29 12:59:00,66.7,51.5,30.00,SSE,158,7.3,7.3,58,0.00,,,0.00,VWS V14.00,2013-03-29 10:59:00,
2013-03-29 13:01:00,66.7,51.5,30.00,SSW,202,12.3,12.3,58,0.00,,,0.00,VWS V14.00,2013-03-29 11:01:00,
2013-03-29 13:03:00,66.7,51.9,30.00,SW,225,11.4,12.3,59,0.00,,,0.00,VWS V14.00,2013-03-29 11:03:00,
2013-03-29 13:04:00,66.7,51.9,30.00,SW,225,11.4,12.3,59,0.00,,,0.00,VWS V14.00,2013-03-29 11:04:00,
2013-03-29 13:06:00,66.7,51.5,30.00,SW,225,2.6,3.8,58,0.00,,,0.00,VWS V14.00,2013-03-29 11:06:00,
2013-03-29 13:08:00,66.7,51.5,30.00,SW,225,2.6,3.8,58,0.00,,,0.00,VWS V14.00,2013-03-29 11:08:00,
2013-03-29 13:09:00,66.7,51.5,30.00,SW,225,2.6,3.8,58,0.00,,,0.00,VWS V14.00,2013-03-29 11:09:00,
2013-03-29 13:12:00,67.1,51.4,30.00,SSE,158,4.9,6.4,57,0.00,,,0.00,VWS V14.00,2013-03-29 11:12:00,
2013-03-29 13:13:00,67.1,51.4,30.00,SSE,158,4.9,6.4,57,0.00,,,0.00,VWS V14.00,2013-03-29 11:13:00,
2013-03-29 13:14:00,67.1,51.4,30.00,WSW,248,14.9,14.9,57,0.00,,,0.00,VWS V14.00,2013-03-29 11:14:00,
2013-03-29 13:17:00,67.2,50.5,30.00,SW,225,5.1,5.1,55,0.00,,,0.00,VWS V14.00,2013-03-29 11:17:00,
2013-03-29 13:18:00,67.1,50.9,29.99,SW,225,10.5,10.5,56,0.00,,,0.00,VWS V14.00,2013-03-29 11:18:00,
2013-03-29 13:19:00,67.1,50.9,29.99,SW,225,10.5,10.5,56,0.00,,,0.00,VWS V14.00,2013-03-29 11:19:00,
2013-03-29 13:22:00,67.2,51.5,29.99,WSW,248,6.9,6.9,57,0.00,,,0.00,VWS V14.00,2013-03-29 11:22:00,
2013-03-29 13:23:00,67.2,51.5,29.99,WSW,248,6.9,6.9,57,0.00,,,0.00,VWS V14.00,2013-03-29 11:23:00,
2013-03-29 13:24:00,67.2,51.5,29.99,WSW,248,6.9,6.9,57,0.00,,,0.00,VWS V14.00,2013-03-29 11:24:00,
2013-03-29 13:27:00,67.6,51.8,29.99,South,180,5.1,5.1,57,0.00,,,0.00,VWS V14.00,2013-03-29 11:27:00,
2013-03-29 13:28:00,67.6,51.8,29.99,South,180,5.1,5.1,57,0.00,,,0.00,VWS V14.00,2013-03-29 11:28:00,
2013-03-29 13:29:00,67.6,51.8,29.99,South,180,2.0,5.1,57,0.00,,,0.00,VWS V14.00,2013-03-29 11:29:00,
2013-03-29 13:32:00,67.8,51.5,29.99,WSW,248,5.5,5.5,56,0.00,,,0.00,VWS V14.00,2013-03-29 11:32:00,
2013-03-29 13:33:00,67.8,51.5,29.99,SSW,202,5.1,5.5,56,0.00,,,0.00,VWS V14.00,2013-03-29 11:33:00,
2013-03-29 13:34:00,67.8,51.5,30.00,SSW,202,5.1,5.5,56,0.00,,,0.00,VWS V14.00,2013-03-29 11:34:00,
2013-03-29 13:37:00,67.8,51.5,29.99,West,270,6.9,6.9,56,0.00,,,0.00,VWS V14.00,2013-03-29 11:37:00,
2013-03-29 13:38:00,67.8,51.5,29.99,West,270,6.9,6.9,56,0.00,,,0.00,VWS V14.00,2013-03-29 11:38:00,
2013-03-29 13:39:00,67.8,51.5,29.99,West,270,6.9,6.9,56,0.00,,,0.00,VWS V14.00,2013-03-29 11:39:00,
2013-03-29 13:42:00,67.8,51.5,29.99,SSE,158,1.5,6.2,56,0.00,,,0.00,VWS V14.00,2013-03-29 11:42:00,
2013-03-29 13:43:00,67.8,51.5,29.99,SSE,158,1.5,6.2,56,0.00,,,0.00,VWS V14.00,2013-03-29 11:43:00,
2013-03-29 13:44:00,67.8,51.5,29.99,SW,225,7.8,7.8,56,0.00,,,0.00,VWS V14.00,2013-03-29 11:44:00,
2013-03-29 13:47:00,67.8,51.5,29.99,SSW,202,1.7,1.7,56,0.00,,,0.00,VWS V14.00,2013-03-29 11:47:00,
2013-03-29 13:48:00,67.8,51.5,29.99,SW,225,4.4,4.4,56,0.00,,,0.00,VWS V14.00,2013-03-29 11:48:00,
2013-03-29 13:49:00,67.8,51.5,29.99,ENE,68,2.9,4.4,56,0.00,,,0.00,VWS V14.00,2013-03-29 11:49:00,
2013-03-29 13:52:00,67.8,51.5,29.99,WSW,248,3.8,3.8,56,0.00,,,0.00,VWS V14.00,2013-03-29 11:52:00,
2013-03-29 13:53:00,67.8,51.5,29.99,WSW,248,3.8,3.8,56,0.00,,,0.00,VWS V14.00,2013-03-29 11:53:00,
2013-03-29 13:54:00,67.8,51.5,29.99,West,270,0.0,3.8,56,0.00,,,0.00,VWS V14.00,2013-03-29 11:54:00,
2013-03-29 13:57:00,67.8,52.0,29.99,West,270,6.0,6.0,57,0.00,,,0.00,VWS V14.00,2013-03-29 11:57:00,
2013-03-29 13:58:00,67.8,52.0,29.99,West,270,6.0,6.0,57,0.00,,,0.00,VWS V14.00,2013-03-29 11:58:00,
2013-03-29 13:59:00,67.8,51.5,29.99,WSW,248,3.5,6.0,56,0.00,,,0.10,VWS V14.00,2013-03-29 11:59:00,
2013-03-29 14:02:00,67.8,51.5,29.99,West,270,2.9,6.0,56,0.00,,,0.00,VWS V14.00,2013-03-29 12:02:00,
2013-03-29 14:03:00,67.8,51.5,29.99,West,270,2.9,6.0,56,0.00,,,0.00,VWS V14.00,2013-03-29 12:03:00,
2013-03-29 14:04:00,67.8,51.5,29.99,West,270,2.9,6.0,56,0.00,,,0.00,VWS V14.00,2013-03-29 12:04:00,
2013-03-29 14:08:00,67.6,51.4,30.00,WSW,248,5.5,5.5,56,0.00,,,0.00,VWS V14.00,2013-03-29 12:08:00,
2013-03-29 14:09:00,67.6,51.4,29.99,SSW,202,3.5,5.5,56,0.00,,,0.00,VWS V14.00,2013-03-29 12:09:00,
2013-03-29 14:13:00,67.6,51.4,29.99,WSW,248,4.6,4.6,56,0.00,,,0.00,VWS V14.00,2013-03-29 12:13:00,
2013-03-29 14:14:00,67.6,51.8,29.99,South,180,4.9,4.9,57,0.00,,,0.00,VWS V14.00,2013-03-29 12:14:00,
2013-03-29 14:15:00,67.6,51.8,29.99,South,180,4.9,4.9,57,0.00,,,0.00,VWS V14.00,2013-03-29 12:15:00,
2013-03-29 14:18:00,67.2,51.5,29.99,SW,225,3.3,7.3,57,0.00,,,0.00,VWS V14.00,2013-03-29 12:18:00,
2013-03-29 14:19:00,67.2,51.5,29.99,SW,225,3.3,7.3,57,0.00,,,0.00,VWS V14.00,2013-03-29 12:19:00,
2013-03-29 14:20:00,67.1,51.4,29.99,West,270,2.6,7.3,57,0.00,,,0.00,VWS V14.00,2013-03-29 12:20:00,
2013-03-29 14:23:00,67.1,51.4,29.99,WSW,248,0.6,2.6,57,0.00,,,0.00,VWS V14.00,2013-03-29 12:23:00,
2013-03-29 14:24:00,67.1,51.4,29.99,SW,225,0.8,2.6,57,0.00,,,0.00,VWS V14.00,2013-03-29 12:24:00,
2013-03-29 14:25:00,67.1,51.4,29.99,SW,225,0.8,2.6,57,0.00,,,0.00,VWS V14.00,2013-03-29 12:25:00,
2013-03-29 14:28:00,67.1,51.8,29.99,WSW,248,5.1,5.1,58,0.00,,,0.00,VWS V14.00,2013-03-29 12:28:00,
2013-03-29 14:29:00,67.1,51.8,29.99,SW,225,2.2,5.1,58,0.00,,,0.00,VWS V14.00,2013-03-29 12:29:00,
2013-03-29 14:30:00,67.1,51.8,29.99,SW,225,2.2,5.1,58,0.00,,,0.00,VWS V14.00,2013-03-29 12:30:00,
2013-03-29 14:33:00,67.2,51.9,29.99,South,180,1.3,10.5,58,0.00,,,0.00,VWS V14.00,2013-03-29 12:33:00,
2013-03-29 14:34:00,67.2,51.9,29.99,South,180,1.3,10.5,58,0.00,,,0.00,VWS V14.00,2013-03-29 12:34:00,
2013-03-29 14:35:00,67.2,51.9,29.99,SW,225,3.1,10.5,58,0.00,,,0.00,VWS V14.00,2013-03-29 12:35:00,
2013-03-29 14:38:00,67.2,51.9,29.99,SSE,158,3.3,3.3,58,0.00,,,0.00,VWS V14.00,2013-03-29 12:38:00,
2013-03-29 14:39:00,67.2,51.9,29.99,WSW,248,4.2,4.2,58,0.00,,,0.00,VWS V14.00,2013-03-29 12:39:00,
2013-03-29 14:40:00,67.2,51.9,29.99,WSW,248,4.2,4.2,58,0.00,,,0.00,VWS V14.00,2013-03-29 12:40:00,
2013-03-29 14:43:00,67.2,51.9,29.99,SW,225,0.0,4.2,58,0.00,,,0.00,VWS V14.00,2013-03-29 12:43:00,
2013-03-29 14:44:00,67.2,51.9,29.99,SW,225,0.0,4.2,58,0.00,,,0.00,VWS V14.00,2013-03-29 12:44:00,
2013-03-29 14:45:00,67.2,51.9,29.99,SW,225,0.0,4.2,58,0.00,,,0.00,VWS V14.00,2013-03-29 12:45:00,
2013-03-29 14:48:00,67.1,51.8,29.99,West,270,6.2,6.2,58,0.00,,,0.00,VWS V14.00,2013-03-29 12:48:00,
2013-03-29 14:49:00,67.1,51.8,29.99,West,270,6.2,6.2,58,0.00,,,0.00,VWS V14.00,2013-03-29 12:49:00,
2013-03-29 14:50:00,67.1,51.8,29.99,WSW,248,4.2,6.2,58,0.00,,,0.00,VWS V14.00,2013-03-29 12:50:00,
2013-03-29 14:53:00,67.1,51.8,29.99,West,270,3.1,4.2,58,0.00,,,0.00,VWS V14.00,2013-03-29 12:53:00,
2013-03-29 14:54:00,67.1,51.8,29.99,West,270,3.1,4.2,58,0.00,,,0.00,VWS V14.00,2013-03-29 12:54:00,
2013-03-29 14:55:00,66.9,51.7,29.99,WNW,292,1.5,4.2,58,0.00,,,0.00,VWS V14.00,2013-03-29 12:55:00,
2013-03-29 14:58:00,66.9,51.7,29.99,SW,225,4.2,4.2,58,0.00,,,0.00,VWS V14.00,2013-03-29 12:58:00,
2013-03-29 14:59:00,66.7,51.5,29.99,WSW,248,3.1,4.2,58,0.00,,,0.00,VWS V14.00,2013-03-29 12:59:00,
2013-03-29 15:00:00,66.7,51.5,29.99,WSW,248,3.1,4.2,58,0.00,,,0.00,VWS V14.00,2013-03-29 13:00:00,
2013-03-29 15:03:00,66.5,51.3,29.99,WSW,248,3.5,6.4,58,0.00,,,0.10,VWS V14.00,2013-03-29 13:03:00,
2013-03-29 15:04:00,66.5,51.3,29.99,WSW,248,3.5,6.4,58,0.00,,,0.00,VWS V14.00,2013-03-29 13:04:00,
2013-03-29 15:05:00,66.3,51.1,29.98,SW,225,4.4,6.4,58,0.00,,,0.00,VWS V14.00,2013-03-29 13:05:00,
2013-03-29 15:08:00,66.3,51.1,29.98,West,270,0.0,4.4,58,0.00,,,0.00,VWS V14.00,2013-03-29 13:08:00,
2013-03-29 15:09:00,66.3,51.1,29.98,WSW,248,2.4,4.4,58,0.00,,,0.00,VWS V14.00,2013-03-29 13:09:00,
2013-03-29 15:10:00,66.2,51.5,29.98,WSW,248,2.4,4.4,59,0.00,,,0.00,VWS V14.00,2013-03-29 13:10:00,
2013-03-29 15:13:00,66.0,51.3,29.98,WSW,248,0.8,2.4,59,0.00,,,0.00,VWS V14.00,2013-03-29 13:13:00,
2013-03-29 15:14:00,66.0,51.3,29.98,WSW,248,0.8,2.4,59,0.00,,,0.00,VWS V14.00,2013-03-29 13:14:00,
2013-03-29 15:15:00,66.0,51.3,29.98,WSW,248,0.8,2.4,59,0.00,,,0.00,VWS V14.00,2013-03-29 13:15:00,
2013-03-29 15:18:00,66.0,51.7,29.97,SW,225,3.3,5.1,60,0.00,,,0.00,VWS V14.00,2013-03-29 13:18:00,
2013-03-29 15:19:00,66.0,51.7,29.98,SW,225,3.3,5.1,60,0.00,,,0.00,VWS V14.00,2013-03-29 13:19:00,
2013-03-29 15:20:00,66.0,51.7,29.97,WSW,248,2.6,2.6,60,0.00,,,0.00,VWS V14.00,2013-03-29 13:20:00,
2013-03-29 15:23:00,66.0,51.7,29.97,SSE,158,1.5,2.6,60,0.00,,,0.00,VWS V14.00,2013-03-29 13:23:00,
2013-03-29 15:24:00,66.0,51.7,29.97,SW,225,2.0,2.6,60,0.00,,,0.00,VWS V14.00,2013-03-29 13:24:00,
2013-03-29 15:25:00,66.0,51.7,29.97,SW,225,2.0,2.0,60,0.00,,,0.00,VWS V14.00,2013-03-29 13:25:00,
2013-03-29 15:28:00,66.0,51.7,29.97,SSW,202,0.8,2.4,60,0.00,,,0.00,VWS V14.00,2013-03-29 13:28:00,
2013-03-29 15:29:00,66.0,51.7,29.97,SSW,202,0.8,2.4,60,0.00,,,0.00,VWS V14.00,2013-03-29 13:29:00,
2013-03-29 15:30:00,66.0,51.7,29.97,ESE,112,0.0,0.0,60,0.00,,,0.00,VWS V14.00,2013-03-29 13:30:00,
2013-03-29 15:33:00,66.0,51.7,29.97,NW,315,0.0,0.0,60,0.00,,,0.00,VWS V14.00,2013-03-29 13:33:00,
2013-03-29 15:34:00,66.0,51.7,29.97,NW,315,0.0,0.0,60,0.00,,,0.00,VWS V14.00,2013-03-29 13:34:00,
2013-03-29 15:35:00,66.0,51.7,29.97,SW,225,2.4,2.4,60,0.00,,,0.00,VWS V14.00,2013-03-29 13:35:00,
2013-03-29 15:38:00,66.0,51.3,29.97,WNW,292,0.0,2.4,59,0.00,,,0.00,VWS V14.00,2013-03-29 13:38:00,
2013-03-29 15:39:00,66.0,51.3,29.97,WNW,292,0.0,2.4,59,0.00,,,0.00,VWS V14.00,2013-03-29 13:39:00,
2013-03-29 15:40:00,66.0,51.3,29.97,WNW,292,0.0,2.4,59,0.00,,,0.00,VWS V14.00,2013-03-29 13:40:00,
2013-03-29 15:43:00,65.4,50.7,29.97,ESE,112,3.8,3.8,59,0.00,,,0.00,VWS V14.00,2013-03-29 13:43:00,
2013-03-29 15:44:00,65.4,50.7,29.97,ESE,112,3.8,3.8,59,0.00,,,0.00,VWS V14.00,2013-03-29 13:44:00,
2013-03-29 15:45:00,65.4,50.7,29.97,ESE,112,3.8,3.8,59,0.00,,,0.00,VWS V14.00,2013-03-29 13:45:00,
2013-03-29 15:48:00,65.3,51.1,29.96,ESE,112,0.6,1.5,60,0.00,,,0.00,VWS V14.00,2013-03-29 13:48:00,
2013-03-29 15:49:00,65.3,51.1,29.96,ESE,112,0.6,1.5,60,0.00,,,0.00,VWS V14.00,2013-03-29 13:49:00,
2013-03-29 15:50:00,65.3,51.1,29.97,East,90,0.0,1.5,60,0.00,,,0.00,VWS V14.00,2013-03-29 13:50:00,
2013-03-29 15:53:00,65.3,51.1,29.96,ESE,112,0.0,0.8,60,0.00,,,0.00,VWS V14.00,2013-03-29 13:53:00,
2013-03-29 15:54:00,65.3,51.1,29.96,ESE,112,0.0,0.8,60,0.00,,,0.00,VWS V14.00,2013-03-29 13:54:00,
2013-03-29 15:55:00,65.3,51.1,29.96,ESE,112,0.0,0.8,60,0.00,,,0.00,VWS V14.00,2013-03-29 13:55:00,
2013-03-29 15:59:00,65.4,51.2,29.96,NW,315,0.0,0.0,60,0.00,,,0.00,VWS V14.00,2013-03-29 13:59:00,
2013-03-29 16:00:00,65.4,51.2,29.97,NW,315,0.0,0.0,60,0.00,,,0.00,VWS V14.00,2013-03-29 14:00:00,
2013-03-29 16:04:00,65.4,51.2,29.96,WNW,292,2.0,2.0,60,0.00,,,0.00,VWS V14.00,2013-03-29 14:04:00,
2013-03-29 16:05:00,65.4,51.2,29.97,WNW,292,1.5,2.0,60,0.00,,,0.00,VWS V14.00,2013-03-29 14:05:00,
2013-03-29 16:09:00,65.4,51.2,29.97,South,180,0.0,2.2,60,0.00,,,0.00,VWS V14.00,2013-03-29 14:09:00,
2013-03-29 16:10:00,65.3,51.1,29.96,South,180,0.0,2.2,60,0.00,,,0.00,VWS V14.00,2013-03-29 14:10:00,
2013-03-29 16:14:00,65.3,51.1,29.96,WSW,248,0.0,1.7,60,0.00,,,0.00,VWS V14.00,2013-03-29 14:14:00,
2013-03-29 16:15:00,65.3,51.1,29.96,WSW,248,0.0,1.7,60,0.00,,,0.00,VWS V14.00,2013-03-29 14:15:00,
2013-03-29 16:19:00,65.4,51.2,29.97,West,270,2.0,2.0,60,0.00,,,0.00,VWS V14.00,2013-03-29 14:19:00,
2013-03-29 16:20:00,65.4,51.2,29.96,SW,225,0.0,2.0,60,0.00,,,0.00,VWS V14.00,2013-03-29 14:20:00,
2013-03-29 16:24:00,65.4,51.2,29.96,SSW,202,2.4,2.4,60,0.00,,,0.00,VWS V14.00,2013-03-29 14:24:00,
2013-03-29 16:25:00,65.4,51.2,29.96,SSW,202,2.4,2.4,60,0.00,,,0.00,VWS V14.00,2013-03-29 14:25:00,
2013-03-29 16:29:00,65.4,51.2,29.96,WSW,248,0.0,2.9,60,0.00,,,0.00,VWS V14.00,2013-03-29 14:29:00,
2013-03-29 16:30:00,65.4,51.2,29.96,WSW,248,0.0,2.9,60,0.00,,,0.10,VWS V14.00,2013-03-29 14:30:00,
2013-03-29 16:34:00,65.8,51.5,29.96,WSW,248,0.0,0.0,60,0.00,,,0.00,VWS V14.00,2013-03-29 14:34:00,
2013-03-29 16:35:00,65.8,51.5,29.96,WSW,248,0.0,0.0,60,0.00,,,0.00,VWS V14.00,2013-03-29 14:35:00,
2013-03-29 16:39:00,66.0,51.7,29.96,West,270,0.0,1.5,60,0.00,,,0.00,VWS V14.00,2013-03-29 14:39:00,
2013-03-29 16:40:00,66.0,51.7,29.96,West,270,0.0,1.5,60,0.00,,,0.00,VWS V14.00,2013-03-29 14:40:00,
2013-03-29 16:44:00,66.2,51.9,29.96,SW,225,1.1,4.6,60,0.00,,,0.00,VWS V14.00,2013-03-29 14:44:00,
2013-03-29 16:45:00,66.2,51.9,29.96,SW,225,1.1,4.6,60,0.00,,,0.00,VWS V14.00,2013-03-29 14:45:00,
2013-03-29 16:50:00,66.3,51.6,29.96,WNW,292,0.0,2.2,59,0.00,,,0.00,VWS V14.00,2013-03-29 14:50:00,
2013-03-29 16:51:00,66.3,51.6,29.96,WNW,292,0.0,0.0,59,0.00,,,0.00,VWS V14.00,2013-03-29 14:51:00,
2013-03-29 16:55:00,66.5,51.8,29.96,SSE,158,0.0,0.8,59,0.00,,,0.00,VWS V14.00,2013-03-29 14:55:00,
2013-03-29 16:56:00,66.5,51.8,29.96,WSW,248,0.0,0.0,59,0.00,,,0.00,VWS V14.00,2013-03-29 14:56:00,
2013-03-29 17:00:00,66.7,51.9,29.95,WSW,248,0.8,0.8,59,0.00,,,0.00,VWS V14.00,2013-03-29 15:00:00,
2013-03-29 17:01:00,66.7,51.9,29.95,WSW,248,1.1,1.1,59,0.00,,,0.00,VWS V14.00,2013-03-29 15:01:00,
2013-03-29 17:05:00,66.7,51.9,29.95,West,270,0.0,1.3,59,0.00,,,0.00,VWS V14.00,2013-03-29 15:05:00,
2013-03-29 17:07:00,66.5,51.8,29.96,WSW,248,0.8,0.8,59,0.00,,,0.00,VWS V14.00,2013-03-29 15:07:00,
2013-03-29 17:10:00,66.5,51.8,29.96,South,180,0.0,0.8,59,0.00,,,0.00,VWS V14.00,2013-03-29 15:10:00,
2013-03-29 17:12:00,66.5,51.8,29.95,SE,135,0.0,0.0,59,0.00,,,0.00,VWS V14.00,2013-03-29 15:12:00,
2013-03-29 17:15:00,66.5,51.8,29.95,ESE,112,0.0,0.0,59,0.00,,,0.00,VWS V14.00,2013-03-29 15:15:00,
2013-03-29 17:17:00,66.5,51.8,29.95,East,90,2.2,2.2,59,0.00,,,0.00,VWS V14.00,2013-03-29 15:17:00,
2013-03-29 17:20:00,66.3,51.6,29.96,ESE,112,0.0,3.3,59,0.00,,,0.00,VWS V14.00,2013-03-29 15:20:00,
2013-03-29 17:22:00,66.3,51.6,29.95,ESE,112,2.4,2.4,59,0.00,,,0.00,VWS V14.00,2013-03-29 15:22:00,
2013-03-29 17:25:00,66.2,51.9,29.96,East,90,2.4,2.4,60,0.00,,,0.00,VWS V14.00,2013-03-29 15:25:00,
2013-03-29 17:27:00,66.0,51.7,29.95,SE,135,0.6,0.6,60,0.00,,,0.00,VWS V14.00,2013-03-29 15:27:00,
2013-03-29 17:30:00,66.0,51.7,29.95,East,90,2.0,2.0,60,0.00,,,0.00,VWS V14.00,2013-03-29 15:30:00,
2013-03-29 17:32:00,65.8,51.5,29.95,ESE,112,0.8,3.3,60,0.00,,,0.00,VWS V14.00,2013-03-29 15:32:00,
2013-03-29 17:35:00,65.8,52.0,29.96,SE,135,1.5,3.3,61,0.00,,,0.00,VWS V14.00,2013-03-29 15:35:00,
2013-03-29 17:37:00,65.6,51.8,29.95,NE,45,0.0,1.5,61,0.00,,,0.00,VWS V14.00,2013-03-29 15:37:00,
2013-03-29 17:40:00,65.4,52.1,29.95,ESE,112,5.5,5.5,62,0.00,,,0.00,VWS V14.00,2013-03-29 15:40:00,
2013-03-29 17:41:00,65.4,52.1,29.95,ESE,112,5.5,5.5,62,0.00,,,0.00,VWS V14.00,2013-03-29 15:41:00,
2013-03-29 17:43:00,65.4,52.1,29.95,ESE,112,1.5,5.5,62,0.00,,,0.00,VWS V14.00,2013-03-29 15:43:00,
2013-03-29 17:45:00,65.1,51.8,29.95,SE,135,2.2,2.2,62,0.00,,,0.00,VWS V14.00,2013-03-29 15:45:00,
2013-03-29 17:46:00,65.1,51.8,29.95,SE,135,2.2,2.2,62,0.00,,,0.00,VWS V14.00,2013-03-29 15:46:00,
2013-03-29 17:48:00,65.1,51.8,29.95,SE,135,2.6,2.6,62,0.00,,,0.00,VWS V14.00,2013-03-29 15:48:00,
2013-03-29 17:50:00,64.9,52.0,29.95,SE,135,3.5,3.5,63,0.00,,,0.00,VWS V14.00,2013-03-29 15:50:00,
2013-03-29 17:51:00,64.9,52.0,29.95,SE,135,3.5,3.5,63,0.00,,,0.00,VWS V14.00,2013-03-29 15:51:00,
2013-03-29 17:53:00,64.7,51.8,29.95,ESE,112,1.1,3.5,63,0.00,,,0.00,VWS V14.00,2013-03-29 15:53:00,
2013-03-29 17:55:00,64.5,52.1,29.95,NE,45,1.7,3.5,64,0.00,,,0.00,VWS V14.00,2013-03-29 15:55:00,
2013-03-29 17:56:00,64.5,52.1,29.95,NE,45,1.7,1.7,64,0.00,,,0.00,VWS V14.00,2013-03-29 15:56:00,
2013-03-29 17:58:00,64.2,51.8,29.95,NE,45,1.7,1.7,64,0.00,,,0.00,VWS V14.00,2013-03-29 15:58:00,
2013-03-29 18:00:00,64.2,51.8,29.95,East,90,2.9,4.2,64,0.00,,,0.00,VWS V14.00,2013-03-29 16:00:00,
2013-03-29 18:01:00,64.2,51.8,29.95,East,90,2.9,2.9,64,0.00,,,0.00,VWS V14.00,2013-03-29 16:01:00,
2013-03-29 18:03:00,64.0,51.6,29.96,ESE,112,3.1,3.1,64,0.00,,,0.00,VWS V14.00,2013-03-29 16:03:00,
2013-03-29 18:05:00,64.0,52.0,29.96,SSE,158,0.0,0.0,65,0.00,,,0.00,VWS V14.00,2013-03-29 16:05:00,
2013-03-29 18:06:00,64.0,52.0,29.96,SSE,158,0.0,0.0,65,0.00,,,0.00,VWS V14.00,2013-03-29 16:06:00,
2013-03-29 18:07:00,64.0,52.0,29.96,SE,135,2.0,2.0,65,0.00,,,0.00,VWS V14.00,2013-03-29 16:07:00,
2013-03-29 18:08:00,64.0,52.0,29.96,SE,135,2.0,2.0,65,0.00,,,0.00,VWS V14.00,2013-03-29 16:08:00,
2013-03-29 18:10:00,63.6,51.6,29.96,SE,135,1.3,1.3,65,0.00,,,0.00,VWS V14.00,2013-03-29 16:10:00,
2013-03-29 18:11:00,63.6,51.6,29.96,SE,135,1.3,1.3,65,0.00,,,0.00,VWS V14.00,2013-03-29 16:11:00,
2013-03-29 18:12:00,63.6,51.6,29.96,SE,135,1.3,1.3,65,0.00,,,0.00,VWS V14.00,2013-03-29 16:12:00,
2013-03-29 18:13:00,63.6,51.6,29.96,SE,135,1.3,1.3,65,0.00,,,0.00,VWS V14.00,2013-03-29 16:13:00,
2013-03-29 18:15:00,63.5,51.5,29.96,East,90,1.1,1.1,65,0.00,,,0.00,VWS V14.00,2013-03-29 16:15:00,
2013-03-29 18:16:00,63.5,51.5,29.96,East,90,1.1,1.1,65,0.00,,,0.00,VWS V14.00,2013-03-29 16:16:00,
2013-03-29 18:17:00,63.5,51.5,29.96,East,90,1.1,1.1,65,0.00,,,0.00,VWS V14.00,2013-03-29 16:17:00,
2013-03-29 18:18:00,63.3,51.8,29.96,East,90,1.5,1.5,66,0.00,,,0.00,VWS V14.00,2013-03-29 16:18:00,
2013-03-29 18:20:00,63.3,51.8,29.96,NE,45,0.8,0.8,66,0.00,,,0.00,VWS V14.00,2013-03-29 16:20:00,
2013-03-29 18:21:00,63.3,51.8,29.96,NE,45,0.8,0.8,66,0.00,,,0.00,VWS V14.00,2013-03-29 16:21:00,
2013-03-29 18:22:00,63.1,51.6,29.96,ESE,112,4.4,4.4,66,0.00,,,0.00,VWS V14.00,2013-03-29 16:22:00,
2013-03-29 18:23:00,63.1,51.6,29.96,ESE,112,4.4,4.4,66,0.00,,,0.00,VWS V14.00,2013-03-29 16:23:00,
2013-03-29 18:26:00,63.1,51.6,29.96,East,90,1.3,1.3,66,0.00,,,0.00,VWS V14.00,2013-03-29 16:26:00,
2013-03-29 18:27:00,63.1,51.6,29.96,East,90,1.3,1.3,66,0.00,,,0.00,VWS V14.00,2013-03-29 16:27:00,
2013-03-29 18:28:00,63.1,51.6,29.96,East,90,1.3,1.3,66,0.00,,,0.00,VWS V14.00,2013-03-29 16:28:00,
2013-03-29 18:31:00,62.9,51.8,29.96,ESE,112,2.9,2.9,67,0.00,,,0.00,VWS V14.00,2013-03-29 16:31:00,
2013-03-29 18:32:00,62.9,51.8,29.96,ESE,112,2.9,2.9,67,0.00,,,0.00,VWS V14.00,2013-03-29 16:32:00,
2013-03-29 18:33:00,62.7,51.6,29.96,ESE,112,4.4,4.4,67,0.00,,,0.00,VWS V14.00,2013-03-29 16:33:00,
2013-03-29 18:37:00,62.6,51.5,29.96,East,90,0.0,0.0,67,0.00,,,0.00,VWS V14.00,2013-03-29 16:37:00,
2013-03-29 18:38:00,62.4,51.3,29.96,East,90,1.7,1.7,67,0.00,,,0.00,VWS V14.00,2013-03-29 16:38:00,
2013-03-29 18:42:00,62.4,51.7,29.96,East,90,1.1,1.1,68,0.00,,,0.00,VWS V14.00,2013-03-29 16:42:00,
2013-03-29 18:44:00,62.4,51.7,29.96,East,90,2.0,2.0,68,0.00,,,0.00,VWS V14.00,2013-03-29 16:44:00,
2013-03-29 18:47:00,62.2,51.5,29.96,East,90,3.1,3.1,68,0.00,,,0.00,VWS V14.00,2013-03-29 16:47:00,
2013-03-29 18:49:00,62.2,51.5,29.96,East,90,3.5,3.5,68,0.00,,,0.00,VWS V14.00,2013-03-29 16:49:00,
2013-03-29 18:52:00,62.0,51.3,29.96,SSE,158,3.8,3.8,68,0.00,,,0.00,VWS V14.00,2013-03-29 16:52:00,
2013-03-29 18:53:00,62.0,51.3,29.96,SSE,158,3.8,3.8,68,0.00,,,0.00,VWS V14.00,2013-03-29 16:53:00,
2013-03-29 18:57:00,61.8,51.1,29.96,SE,135,2.2,2.2,68,0.00,,,0.00,VWS V14.00,2013-03-29 16:57:00,
2013-03-29 18:58:00,61.8,51.1,29.96,SE,135,2.2,2.2,68,0.00,,,0.00,VWS V14.00,2013-03-29 16:58:00,
2013-03-29 18:59:00,61.8,51.5,29.96,ESE,112,0.6,2.2,69,0.00,,,0.00,VWS V14.00,2013-03-29 16:59:00,
2013-03-29 19:02:00,61.7,51.4,29.95,East,90,2.2,2.2,69,0.00,,,0.00,VWS V14.00,2013-03-29 17:02:00,
2013-03-29 19:03:00,61.7,51.4,29.95,East,90,2.2,2.2,69,0.00,,,0.00,VWS V14.00,2013-03-29 17:03:00,
2013-03-29 19:04:00,61.7,51.4,29.96,East,90,2.2,2.2,69,0.00,,,0.00,VWS V14.00,2013-03-29 17:04:00,
2013-03-29 19:07:00,61.5,51.2,29.95,ESE,112,2.9,3.8,69,0.00,,,0.00,VWS V14.00,2013-03-29 17:07:00,
2013-03-29 19:08:00,61.5,51.2,29.95,ESE,112,2.9,3.8,69,0.00,,,0.00,VWS V14.00,2013-03-29 17:08:00,
2013-03-29 19:09:00,61.5,51.2,29.95,ENE,68,2.0,3.8,69,0.00,,,0.00,VWS V14.00,2013-03-29 17:09:00,
2013-03-29 19:12:00,61.3,51.1,29.95,East,90,2.0,2.0,69,0.00,,,0.00,VWS V14.00,2013-03-29 17:12:00,
2013-03-29 19:13:00,61.3,51.1,29.95,East,90,2.0,2.0,69,0.00,,,0.00,VWS V14.00,2013-03-29 17:13:00,
2013-03-29 19:14:00,61.5,51.6,29.95,ESE,112,0.8,2.0,70,0.00,,,0.00,VWS V14.00,2013-03-29 17:14:00,
2013-03-29 19:17:00,61.3,51.5,29.95,ESE,112,0.0,0.0,70,0.00,,,0.00,VWS V14.00,2013-03-29 17:17:00,
2013-03-29 19:18:00,61.3,51.5,29.95,ESE,112,0.0,0.0,70,0.00,,,0.00,VWS V14.00,2013-03-29 17:18:00,
2013-03-29 19:19:00,61.3,51.5,29.95,ESE,112,0.0,0.0,70,0.00,,,0.00,VWS V14.00,2013-03-29 17:19:00,
2013-03-29 19:22:00,61.1,51.2,29.95,ESE,112,0.0,0.0,70,0.00,,,0.00,VWS V14.00,2013-03-29 17:22:00,
2013-03-29 19:23:00,61.1,51.2,29.95,ESE,112,0.0,0.0,70,0.00,,,0.00,VWS V14.00,2013-03-29 17:23:00,
2013-03-29 19:24:00,61.1,51.2,29.95,ENE,68,2.2,2.2,70,0.00,,,0.00,VWS V14.00,2013-03-29 17:24:00,
2013-03-29 19:27:00,61.1,51.2,29.95,ESE,112,2.4,2.4,70,0.00,,,0.00,VWS V14.00,2013-03-29 17:27:00,
2013-03-29 19:28:00,61.1,51.2,29.95,ESE,112,2.4,2.4,70,0.00,,,0.00,VWS V14.00,2013-03-29 17:28:00,
2013-03-29 19:29:00,61.1,51.6,29.95,East,90,0.0,2.4,71,0.00,,,0.00,VWS V14.00,2013-03-29 17:29:00,
2013-03-29 19:33:00,60.9,51.1,29.95,ESE,112,0.8,0.8,70,0.00,,,0.00,VWS V14.00,2013-03-29 17:33:00,
2013-03-29 19:34:00,60.9,51.1,29.95,ESE,112,0.8,0.8,70,0.00,,,0.00,VWS V14.00,2013-03-29 17:34:00,
2013-03-29 19:38:00,60.9,51.5,29.95,SE,135,4.0,4.0,71,0.00,,,0.00,VWS V14.00,2013-03-29 17:38:00,
2013-03-29 19:39:00,60.9,51.5,29.95,ESE,112,2.4,4.0,71,0.00,,,0.00,VWS V14.00,2013-03-29 17:39:00,
2013-03-29 19:43:00,60.9,51.5,29.95,SE,135,2.2,2.2,71,0.00,,,0.00,VWS V14.00,2013-03-29 17:43:00,
2013-03-29 19:44:00,60.9,51.5,29.95,SE,135,1.5,2.2,71,0.00,,,0.00,VWS V14.00,2013-03-29 17:44:00,
2013-03-29 19:48:00,60.6,51.2,29.96,ENE,68,2.2,2.2,71,0.00,,,0.00,VWS V14.00,2013-03-29 17:48:00,
2013-03-29 19:49:00,60.6,51.2,29.96,ENE,68,2.2,2.2,71,0.00,,,0.00,VWS V14.00,2013-03-29 17:49:00,
2013-03-29 19:50:00,60.6,51.2,29.95,ESE,112,3.1,3.1,71,0.00,,,0.00,VWS V14.00,2013-03-29 17:50:00,
2013-03-29 19:53:00,60.6,51.2,29.96,ESE,112,1.7,3.1,71,0.00,,,0.00,VWS V14.00,2013-03-29 17:53:00,
2013-03-29 19:54:00,60.6,51.5,29.96,ENE,68,3.1,3.1,72,0.00,,,0.00,VWS V14.00,2013-03-29 17:54:00,
2013-03-29 19:55:00,60.6,51.5,29.96,ENE,68,3.1,3.1,72,0.00,,,0.00,VWS V14.00,2013-03-29 17:55:00,
2013-03-29 19:58:00,60.6,51.5,29.96,SE,135,0.6,0.6,72,0.00,,,0.00,VWS V14.00,2013-03-29 17:58:00,
2013-03-29 19:59:00,60.6,51.5,29.96,East,90,2.9,2.9,72,0.00,,,0.00,VWS V14.00,2013-03-29 17:59:00,
2013-03-29 20:00:00,60.6,51.5,29.96,East,90,2.9,2.9,72,0.00,,,0.00,VWS V14.00,2013-03-29 18:00:00,
2013-03-29 20:03:00,60.6,51.5,29.96,ESE,112,1.5,1.5,72,0.00,,,0.00,VWS V14.00,2013-03-29 18:03:00,
2013-03-29 20:04:00,60.6,51.5,29.96,ESE,112,1.5,1.5,72,0.00,,,0.00,VWS V14.00,2013-03-29 18:04:00,
2013-03-29 20:05:00,60.4,51.3,29.96,ESE,112,0.0,1.5,72,0.00,,,0.00,VWS V14.00,2013-03-29 18:05:00,
2013-03-29 20:08:00,60.4,51.3,29.96,ESE,112,1.1,1.1,72,0.00,,,0.00,VWS V14.00,2013-03-29 18:08:00,
2013-03-29 20:09:00,60.4,51.3,29.96,ESE,112,1.1,1.1,72,0.00,,,0.00,VWS V14.00,2013-03-29 18:09:00,
2013-03-29 20:10:00,60.4,51.3,29.96,ESE,112,1.1,1.1,72,0.00,,,0.00,VWS V14.00,2013-03-29 18:10:00,
2013-03-29 20:14:00,60.4,51.3,29.96,East,90,1.5,1.5,72,0.00,,,0.00,VWS V14.00,2013-03-29 18:14:00,
2013-03-29 20:15:00,60.4,51.7,29.96,ESE,112,2.0,2.0,73,0.00,,,0.00,VWS V14.00,2013-03-29 18:15:00,
2013-03-29 20:19:00,60.0,51.3,29.96,East,90,0.8,2.0,73,0.00,,,0.00,VWS V14.00,2013-03-29 18:19:00,
2013-03-29 20:20:00,60.0,51.3,29.96,East,90,0.8,0.8,73,0.00,,,0.00,VWS V14.00,2013-03-29 18:20:00,
2013-03-29 20:24:00,60.0,51.3,29.96,ESE,112,0.8,2.2,73,0.00,,,0.00,VWS V14.00,2013-03-29 18:24:00,
2013-03-29 20:25:00,60.0,51.3,29.96,ESE,112,1.3,1.3,73,0.00,,,0.00,VWS V14.00,2013-03-29 18:25:00,
2013-03-29 20:29:00,60.0,51.3,29.96,SE,135,2.6,2.6,73,0.00,,,0.00,VWS V14.00,2013-03-29 18:29:00,
2013-03-29 20:30:00,60.0,51.3,29.96,SE,135,2.6,2.6,73,0.00,,,0.00,VWS V14.00,2013-03-29 18:30:00,
2013-03-29 20:34:00,59.9,51.2,29.96,ESE,112,0.0,1.3,73,0.00,,,0.00,VWS V14.00,2013-03-29 18:34:00,
2013-03-29 20:35:00,59.9,51.2,29.96,ESE,112,0.0,1.3,73,0.00,,,0.00,VWS V14.00,2013-03-29 18:35:00,
2013-03-29 20:36:00,59.9,51.2,29.96,ESE,112,0.0,0.0,73,0.00,,,0.00,VWS V14.00,2013-03-29 18:36:00,
2013-03-29 20:39:00,59.7,51.0,29.96,ESE,112,2.0,2.2,73,0.00,,,0.00,VWS V14.00,2013-03-29 18:39:00,
2013-03-29 20:40:00,59.7,51.0,29.96,ESE,112,2.0,2.2,73,0.00,,,0.00,VWS V14.00,2013-03-29 18:40:00,
2013-03-29 20:41:00,59.7,51.0,29.96,ESE,112,0.0,0.0,73,0.00,,,0.00,VWS V14.00,2013-03-29 18:41:00,
2013-03-29 20:44:00,59.7,51.0,29.96,ESE,112,0.8,0.8,73,0.00,,,0.00,VWS V14.00,2013-03-29 18:44:00,
2013-03-29 20:45:00,59.5,50.8,29.96,ESE,112,1.1,1.1,73,0.00,,,0.00,VWS V14.00,2013-03-29 18:45:00,
2013-03-29 20:46:00,59.5,50.8,29.96,ESE,112,1.1,1.1,73,0.00,,,0.00,VWS V14.00,2013-03-29 18:46:00,
2013-03-29 20:49:00,59.5,50.8,29.97,SSE,158,0.0,1.1,73,0.00,,,0.00,VWS V14.00,2013-03-29 18:49:00,
2013-03-29 20:50:00,59.5,50.8,29.96,SSE,158,0.0,0.0,73,0.00,,,0.00,VWS V14.00,2013-03-29 18:50:00,
2013-03-29 20:51:00,59.5,50.8,29.96,SE,135,0.0,0.0,73,0.00,,,0.00,VWS V14.00,2013-03-29 18:51:00,
2013-03-29 20:55:00,59.5,50.8,29.97,SE,135,0.0,0.0,73,0.00,,,0.00,VWS V14.00,2013-03-29 18:55:00,
2013-03-29 20:57:00,59.5,50.8,29.96,ESE,112,0.0,0.0,73,0.00,,,0.00,VWS V14.00,2013-03-29 18:57:00,
2013-03-29 21:00:00,59.5,50.8,29.96,South,180,0.0,0.0,73,0.00,,,0.00,VWS V14.00,2013-03-29 19:00:00,
2013-03-29 21:02:00,59.3,50.7,29.97,SSW,202,0.0,0.0,73,0.00,,,0.00,VWS V14.00,2013-03-29 19:02:00,
2013-03-29 21:05:00,59.3,50.7,29.97,ESE,112,0.0,0.0,73,0.00,,,0.00,VWS V14.00,2013-03-29 19:05:00,
2013-03-29 21:08:00,59.3,50.7,29.97,SE,135,0.0,0.0,73,0.00,,,0.00,VWS V14.00,2013-03-29 19:08:00,
2013-03-29 21:10:00,59.3,50.7,29.97,SE,135,0.0,0.0,73,0.00,,,0.00,VWS V14.00,2013-03-29 19:10:00,
2013-03-29 21:14:00,59.1,50.5,29.97,SE,135,0.0,0.0,73,0.00,,,0.00,VWS V14.00,2013-03-29 19:14:00,
2013-03-29 21:15:00,59.1,50.5,29.97,SE,135,0.0,0.0,73,0.00,,,0.00,VWS V14.00,2013-03-29 19:15:00,
2013-03-29 21:18:00,59.1,50.5,29.97,WSW,248,0.0,1.3,73,0.00,,,0.00,VWS V14.00,2013-03-29 19:18:00,
2013-03-29 21:20:00,59.1,50.5,29.98,WSW,248,0.0,1.3,73,0.00,,,0.00,VWS V14.00,2013-03-29 19:20:00,
2013-03-29 21:21:00,59.1,50.5,29.98,WSW,248,0.0,0.0,73,0.00,,,0.00,VWS V14.00,2013-03-29 19:21:00,
2013-03-29 21:23:00,59.1,50.5,29.98,SW,225,2.2,3.1,73,0.00,,,0.00,VWS V14.00,2013-03-29 19:23:00,
2013-03-29 21:25:00,59.1,50.5,29.98,SW,225,2.2,3.1,73,0.00,,,0.00,VWS V14.00,2013-03-29 19:25:00,
2013-03-29 21:26:00,59.1,50.5,29.98,WSW,248,2.4,2.4,73,0.00,,,0.00,VWS V14.00,2013-03-29 19:26:00,
2013-03-29 21:29:00,59.1,50.5,29.97,ESE,112,0.0,2.4,73,0.00,,,0.00,VWS V14.00,2013-03-29 19:29:00,
2013-03-29 21:30:00,59.1,50.5,29.97,ESE,112,0.0,2.4,73,0.00,,,0.00,VWS V14.00,2013-03-29 19:30:00,
2013-03-29 21:31:00,59.1,50.5,29.97,SW,225,0.0,0.0,73,0.00,,,0.00,VWS V14.00,2013-03-29 19:31:00,
2013-03-29 21:34:00,59.0,50.4,29.97,WSW,248,0.0,0.0,73,0.00,,,0.00,VWS V14.00,2013-03-29 19:34:00,
2013-03-29 21:35:00,59.0,50.4,29.97,WSW,248,0.0,0.0,73,0.00,,,0.00,VWS V14.00,2013-03-29 19:35:00,
2013-03-29 21:36:00,59.0,50.4,29.97,WSW,248,0.0,0.0,73,0.00,,,0.00,VWS V14.00,2013-03-29 19:36:00,
2013-03-29 21:39:00,59.0,50.4,29.98,WSW,248,0.0,0.0,73,0.00,,,0.00,VWS V14.00,2013-03-29 19:39:00,
2013-03-29 21:40:00,59.0,50.4,29.98,WSW,248,0.0,0.0,73,0.00,,,0.00,VWS V14.00,2013-03-29 19:40:00,
2013-03-29 21:41:00,59.0,50.4,29.98,WSW,248,0.0,0.0,73,0.00,,,0.00,VWS V14.00,2013-03-29 19:41:00,
2013-03-29 21:44:00,58.8,50.2,29.98,SSW,202,1.3,1.3,73,0.00,,,0.00,VWS V14.00,2013-03-29 19:44:00,
2013-03-29 21:45:00,58.8,50.5,29.98,SW,225,1.5,1.5,74,0.00,,,0.00,VWS V14.00,2013-03-29 19:45:00,
2013-03-29 21:46:00,58.8,50.5,29.98,SW,225,1.5,1.5,74,0.00,,,0.00,VWS V14.00,2013-03-29 19:46:00,
2013-03-29 21:49:00,58.8,50.5,29.98,SSW,202,1.1,1.5,74,0.00,,,0.00,VWS V14.00,2013-03-29 19:49:00,
2013-03-29 21:50:00,58.8,50.5,29.98,SW,225,0.0,0.0,74,0.00,,,0.00,VWS V14.00,2013-03-29 19:50:00,
2013-03-29 21:51:00,58.8,50.5,29.98,SW,225,0.0,0.0,74,0.00,,,0.00,VWS V14.00,2013-03-29 19:51:00,
2013-03-29 21:54:00,58.8,50.5,29.98,WSW,248,0.0,0.0,74,0.00,,,0.00,VWS V14.00,2013-03-29 19:54:00,
2013-03-29 21:55:00,58.8,50.5,29.98,WSW,248,0.0,0.0,74,0.00,,,0.00,VWS V14.00,2013-03-29 19:55:00,
2013-03-29 21:56:00,58.8,50.5,29.98,WSW,248,0.0,0.0,74,0.00,,,0.00,VWS V14.00,2013-03-29 19:56:00,
2013-03-29 22:00:00,58.8,50.5,29.98,WSW,248,0.0,0.0,74,0.00,,,0.00,VWS V14.00,2013-03-29 20:00:00,
2013-03-29 22:01:00,58.8,50.5,29.98,WSW,248,0.0,0.0,74,0.00,,,0.00,VWS V14.00,2013-03-29 20:01:00,
2013-03-29 22:05:00,59.0,50.7,29.97,SW,225,0.0,0.0,74,0.00,,,0.00,VWS V14.00,2013-03-29 20:05:00,
2013-03-29 22:06:00,59.0,50.7,29.97,SW,225,0.0,0.0,74,0.00,,,0.00,VWS V14.00,2013-03-29 20:06:00,
2013-03-29 22:10:00,58.8,50.5,29.98,SW,225,0.0,0.0,74,0.00,,,0.00,VWS V14.00,2013-03-29 20:10:00,
2013-03-29 22:11:00,58.8,50.5,29.98,SW,225,1.3,1.3,74,0.00,,,0.00,VWS V14.00,2013-03-29 20:11:00,
2013-03-29 22:15:00,58.8,50.9,29.98,SW,225,0.0,0.0,75,0.00,,,0.00,VWS V14.00,2013-03-29 20:15:00,
2013-03-29 22:16:00,58.8,50.9,29.98,SW,225,0.0,0.0,75,0.00,,,0.00,VWS V14.00,2013-03-29 20:16:00,
2013-03-29 22:17:00,58.8,50.9,29.98,SW,225,0.0,0.0,75,0.00,,,0.00,VWS V14.00,2013-03-29 20:17:00,
2013-03-29 22:20:00,58.8,50.9,29.98,SW,225,0.0,0.0,75,0.00,,,0.00,VWS V14.00,2013-03-29 20:20:00,
2013-03-29 22:22:00,58.8,50.9,29.98,SW,225,0.0,0.0,75,0.00,,,0.00,VWS V14.00,2013-03-29 20:22:00,
2013-03-29 22:23:00,58.8,50.9,29.98,SW,225,0.0,0.0,75,0.00,,,0.00,VWS V14.00,2013-03-29 20:23:00,
2013-03-29 22:25:00,58.8,50.9,29.98,WSW,248,0.0,0.0,75,0.00,,,0.00,VWS V14.00,2013-03-29 20:25:00,
2013-03-29 22:27:00,58.8,50.9,29.97,WSW,248,0.0,0.0,75,0.00,,,0.00,VWS V14.00,2013-03-29 20:27:00,
2013-03-29 22:28:00,58.8,50.9,29.97,WSW,248,0.0,0.0,75,0.00,,,0.00,VWS V14.00,2013-03-29 20:28:00,
2013-03-29 22:30:00,58.8,50.9,29.97,WSW,248,0.0,0.0,75,0.00,,,0.00,VWS V14.00,2013-03-29 20:30:00,
2013-03-29 22:32:00,58.8,50.9,29.97,WSW,248,0.0,0.0,75,0.00,,,0.00,VWS V14.00,2013-03-29 20:32:00,
2013-03-29 22:33:00,58.6,50.7,29.97,WSW,248,0.0,0.0,75,0.00,,,0.00,VWS V14.00,2013-03-29 20:33:00,
2013-03-29 22:35:00,58.8,51.3,29.97,WSW,248,0.0,0.0,76,0.00,,,0.00,VWS V14.00,2013-03-29 20:35:00,
2013-03-29 22:38:00,58.8,51.6,29.97,WSW,248,0.0,0.0,77,0.00,,,0.00,VWS V14.00,2013-03-29 20:38:00,
2013-03-29 22:40:00,58.8,51.6,29.96,WSW,248,0.0,0.0,77,0.00,,,0.00,VWS V14.00,2013-03-29 20:40:00,
2013-03-29 22:43:00,58.8,52.0,29.97,WSW,248,0.0,0.0,78,0.00,,,0.00,VWS V14.00,2013-03-29 20:43:00,
2013-03-29 22:45:00,58.8,52.0,29.97,WSW,248,0.0,0.0,78,0.00,,,0.00,VWS V14.00,2013-03-29 20:45:00,
2013-03-29 22:48:00,58.8,52.0,29.98,WSW,248,0.0,0.0,78,0.00,,,0.00,VWS V14.00,2013-03-29 20:48:00,
2013-03-29 22:50:00,58.8,51.6,29.97,WSW,248,0.0,0.0,77,0.00,,,0.10,VWS V14.00,2013-03-29 20:50:00,
2013-03-29 22:51:00,58.8,51.6,29.97,WSW,248,0.0,0.0,77,0.00,,,0.00,VWS V14.00,2013-03-29 20:51:00,
2013-03-29 22:53:00,58.8,51.6,29.97,WNW,292,0.0,0.0,77,0.00,,,0.00,VWS V14.00,2013-03-29 20:53:00,
2013-03-29 22:55:00,58.8,51.6,29.97,NNW,338,0.0,0.0,77,0.00,,,0.00,VWS V14.00,2013-03-29 20:55:00,
2013-03-29 22:56:00,58.8,51.6,29.97,WNW,292,0.0,0.0,77,0.00,,,0.00,VWS V14.00,2013-03-29 20:56:00,
2013-03-29 22:58:00,58.8,51.6,29.97,WNW,292,0.0,0.0,77,0.00,,,0.00,VWS V14.00,2013-03-29 20:58:00,
2013-03-29 23:00:00,58.8,51.6,29.97,NW,315,1.3,1.3,77,0.00,,,0.00,VWS V14.00,2013-03-29 21:00:00,
2013-03-29 23:02:00,58.8,51.6,29.97,WNW,292,0.0,1.3,77,0.00,,,0.00,VWS V14.00,2013-03-29 21:02:00,
2013-03-29 23:03:00,58.8,51.6,29.97,WNW,292,0.0,1.3,77,0.00,,,0.00,VWS V14.00,2013-03-29 21:03:00,
2013-03-29 23:05:00,58.8,51.6,29.97,NW,315,0.0,0.0,77,0.00,,,0.00,VWS V14.00,2013-03-29 21:05:00,
2013-03-29 23:07:00,58.8,51.6,29.97,NW,315,0.0,0.0,77,0.00,,,0.00,VWS V14.00,2013-03-29 21:07:00,
2013-03-29 23:08:00,58.8,51.6,29.97,NW,315,0.0,0.0,77,0.00,,,0.00,VWS V14.00,2013-03-29 21:08:00,
2013-03-29 23:10:00,58.6,51.4,29.97,WNW,292,0.0,0.0,77,0.00,,,0.00,VWS V14.00,2013-03-29 21:10:00,
2013-03-29 23:12:00,58.6,51.4,29.97,WNW,292,0.0,0.0,77,0.00,,,0.00,VWS V14.00,2013-03-29 21:12:00,
2013-03-29 23:13:00,58.6,51.4,29.97,WNW,292,0.0,0.0,77,0.00,,,0.00,VWS V14.00,2013-03-29 21:13:00,
2013-03-29 23:16:00,58.6,51.4,29.97,NNE,22,1.1,1.1,77,0.00,,,0.00,VWS V14.00,2013-03-29 21:16:00,
2013-03-29 23:17:00,58.6,51.4,29.97,NW,315,0.0,1.1,77,0.00,,,0.00,VWS V14.00,2013-03-29 21:17:00,
2013-03-29 23:18:00,58.4,51.2,29.97,NW,315,0.0,1.1,77,0.00,,,0.00,VWS V14.00,2013-03-29 21:18:00,
2013-03-29 23:21:00,58.6,51.1,29.97,West,270,0.0,0.0,76,0.00,,,0.00,VWS V14.00,2013-03-29 21:21:00,
2013-03-29 23:22:00,58.4,50.9,29.97,West,270,0.0,0.0,76,0.00,,,0.00,VWS V14.00,2013-03-29 21:22:00,
2013-03-29 23:23:00,58.4,50.9,29.97,West,270,0.0,0.0,76,0.00,,,0.00,VWS V14.00,2013-03-29 21:23:00,
2013-03-29 23:26:00,58.2,50.7,29.97,WNW,292,0.0,0.0,76,0.00,,,0.00,VWS V14.00,2013-03-29 21:26:00,
2013-03-29 23:27:00,58.2,50.7,29.96,WNW,292,0.0,0.0,76,0.00,,,0.00,VWS V14.00,2013-03-29 21:27:00,
2013-03-29 23:28:00,58.2,50.7,29.97,NW,315,0.0,0.0,76,0.00,,,0.00,VWS V14.00,2013-03-29 21:28:00,
2013-03-29 23:29:00,58.2,50.7,29.96,NW,315,0.0,0.0,76,0.00,,,0.00,VWS V14.00,2013-03-29 21:29:00,
2013-03-29 23:31:00,58.2,50.7,29.96,WNW,292,0.0,0.0,76,0.00,,,0.00,VWS V14.00,2013-03-29 21:31:00,
2013-03-29 23:32:00,58.2,50.7,29.97,WNW,292,0.8,0.8,76,0.00,,,0.00,VWS V14.00,2013-03-29 21:32:00,
2013-03-29 23:33:00,58.2,50.7,29.96,WNW,292,0.8,0.8,76,0.00,,,0.00,VWS V14.00,2013-03-29 21:33:00,
2013-03-29 23:34:00,58.2,50.7,29.96,WNW,292,0.0,0.8,76,0.00,,,0.00,VWS V14.00,2013-03-29 21:34:00,
2013-03-29 23:36:00,58.2,50.7,29.97,WNW,292,0.0,0.0,76,0.00,,,0.00,VWS V14.00,2013-03-29 21:36:00,
2013-03-29 23:37:00,58.2,50.7,29.96,WNW,292,0.8,0.8,76,0.00,,,0.00,VWS V14.00,2013-03-29 21:37:00,
2013-03-29 23:38:00,58.2,50.7,29.96,WNW,292,0.8,0.8,76,0.00,,,0.00,VWS V14.00,2013-03-29 21:38:00,
2013-03-29 23:39:00,58.1,50.6,29.96,WNW,292,0.0,0.8,76,0.00,,,0.00,VWS V14.00,2013-03-29 21:39:00,
2013-03-29 23:42:00,58.2,50.7,29.96,WNW,292,0.0,0.0,76,0.00,,,0.00,VWS V14.00,2013-03-29 21:42:00,
2013-03-29 23:43:00,58.1,50.6,29.96,WNW,292,0.0,0.0,76,0.00,,,0.00,VWS V14.00,2013-03-29 21:43:00,
2013-03-29 23:44:00,58.1,50.6,29.96,WNW,292,0.0,0.0,76,0.00,,,0.00,VWS V14.00,2013-03-29 21:44:00,
2013-03-29 23:47:00,58.1,50.6,29.96,WNW,292,0.0,0.0,76,0.00,,,0.00,VWS V14.00,2013-03-29 21:47:00,
2013-03-29 23:49:00,58.1,50.6,29.96,WNW,292,0.0,0.0,76,0.00,,,0.00,VWS V14.00,2013-03-29 21:49:00,
2013-03-29 23:52:00,58.1,50.6,29.96,NW,315,0.0,0.0,76,0.00,,,0.00,VWS V14.00,2013-03-29 21:52:00,
2013-03-29 23:54:00,58.1,50.6,29.96,NW,315,0.6,0.6,76,0.00,,,0.00,VWS V14.00,2013-03-29 21:54:00,
2013-03-29 23:55:00,58.1,50.6,29.96,NW,315,0.6,0.6,76,0.00,,,0.00,VWS V14.00,2013-03-29 21:55:00,
2013-03-29 23:57:00,58.1,50.6,29.96,NNW,338,0.8,0.8,76,0.00,,,0.00,VWS V14.00,2013-03-29 21:57:00,
2013-03-29 23:58:00,58.1,50.6,29.96,NNW,338,0.8,0.8,76,0.00,,,0.00,VWS V14.00,2013-03-29 21:58:00,
2013-03-29 23:59:00,57.9,50.4,29.96,WNW,292,0.0,0.8,76,0.00,,,0.00,VWS V14.00,2013-03-29 21:59:00,